<?xml version="1.0" encoding="UTF-8" standalone="no" ?>
<gpx xmlns="http://www.topografix.com/GPX/1/1" xmlns:xsi="http://www.w3.org/2001/XMLSchema-instance" xsi:schemaLocation="http://www.topografix.com/GPX/1/1 http://www.topografix.com/GPX/1/1/gpx.xsd" version="1.1" creator="VisuGPX - https://www.visugpx.com">
  <metadata>
    <name>Cretes-de-la-Moliere-48-1100</name>
    <desc><![CDATA[Parcours VTT au départ d'Autrans : Crêtes de la Molière - 48 km - D  : 1100 m]]></desc>
  </metadata>
  <trk>
    <name><![CDATA[Crete-Moliere]]></name>
    <trkseg>
      <trkpt lat="45.18341" lon="5.5626">
        <ele>1074.61499</ele>
        <time>2013-10-01T19:34:19Z</time>
      </trkpt>
      <trkpt lat="45.18376" lon="5.56176">
        <ele>1071.11145</ele>
        <time>2013-10-01T19:34:38Z</time>
      </trkpt>
      <trkpt lat="45.18341" lon="5.56066">
        <ele>1070.397705</ele>
        <time>2013-10-01T19:35:01Z</time>
      </trkpt>
      <trkpt lat="45.18385" lon="5.5598">
        <ele>1069.164551</ele>
        <time>2013-10-01T19:35:20Z</time>
      </trkpt>
      <trkpt lat="45.18356" lon="5.55888">
        <ele>1068.033447</ele>
        <time>2013-10-01T19:35:39Z</time>
      </trkpt>
      <trkpt lat="45.18239" lon="5.5581">
        <ele>1063.670776</ele>
        <time>2013-10-01T19:36:14Z</time>
      </trkpt>
      <trkpt lat="45.18127" lon="5.55685">
        <ele>1061.31543</ele>
        <time>2013-10-01T19:36:52Z</time>
      </trkpt>
      <trkpt lat="45.18064" lon="5.55533">
        <ele>1060.887939</ele>
        <time>2013-10-01T19:37:25Z</time>
      </trkpt>
      <trkpt lat="45.17934" lon="5.55317">
        <ele>1057.272461</ele>
        <time>2013-10-01T19:38:19Z</time>
      </trkpt>
      <trkpt lat="45.1787" lon="5.5514">
        <ele>1053.400024</ele>
        <time>2013-10-01T19:38:56Z</time>
      </trkpt>
      <trkpt lat="45.17698" lon="5.54747">
        <ele>1046.813721</ele>
        <time>2013-10-01T19:40:23Z</time>
      </trkpt>
      <trkpt lat="45.17689" lon="5.54658">
        <ele>1045.480225</ele>
        <time>2013-10-01T19:40:40Z</time>
      </trkpt>
      <trkpt lat="45.17624" lon="5.54474">
        <ele>1041.295044</ele>
        <time>2013-10-01T19:41:19Z</time>
      </trkpt>
      <trkpt lat="45.17727" lon="5.54245">
        <ele>1044.449951</ele>
        <time>2013-10-01T19:42:10Z</time>
      </trkpt>
      <trkpt lat="45.17767" lon="5.54183">
        <ele>1045.21875</ele>
        <time>2013-10-01T19:42:26Z</time>
      </trkpt>
      <trkpt lat="45.17797" lon="5.54072">
        <ele>1044.986206</ele>
        <time>2013-10-01T19:42:48Z</time>
      </trkpt>
      <trkpt lat="45.17831" lon="5.53997">
        <ele>1045.592529</ele>
        <time>2013-10-01T19:43:05Z</time>
      </trkpt>
      <trkpt lat="45.17853" lon="5.53964">
        <ele>1046.136108</ele>
        <time>2013-10-01T19:43:13Z</time>
      </trkpt>
      <trkpt lat="45.17886" lon="5.53932">
        <ele>1047.597656</ele>
        <time>2013-10-01T19:43:24Z</time>
      </trkpt>
      <trkpt lat="45.17921" lon="5.53923">
        <ele>1049.094971</ele>
        <time>2013-10-01T19:43:33Z</time>
      </trkpt>
      <trkpt lat="45.17954" lon="5.53935">
        <ele>1050.85498</ele>
        <time>2013-10-01T19:43:42Z</time>
      </trkpt>
      <trkpt lat="45.18028" lon="5.53992">
        <ele>1057.525024</ele>
        <time>2013-10-01T19:44:05Z</time>
      </trkpt>
      <trkpt lat="45.18044" lon="5.53993">
        <ele>1058.607544</ele>
        <time>2013-10-01T19:44:09Z</time>
      </trkpt>
      <trkpt lat="45.18064" lon="5.53957">
        <ele>1059.324951</ele>
        <time>2013-10-01T19:44:18Z</time>
      </trkpt>
      <trkpt lat="45.18107" lon="5.53833">
        <ele>1059.39856</ele>
        <time>2013-10-01T19:44:44Z</time>
      </trkpt>
      <trkpt lat="45.18129" lon="5.53779">
        <ele>1060.193848</ele>
        <time>2013-10-01T19:44:56Z</time>
      </trkpt>
      <trkpt lat="45.18141" lon="5.53767">
        <ele>1060.692627</ele>
        <time>2013-10-01T19:44:59Z</time>
      </trkpt>
      <trkpt lat="45.1817" lon="5.5376">
        <ele>1062.340454</ele>
        <time>2013-10-01T19:45:07Z</time>
      </trkpt>
      <trkpt lat="45.18255" lon="5.53761">
        <ele>1066.774536</ele>
        <time>2013-10-01T19:45:30Z</time>
      </trkpt>
      <trkpt lat="45.18365" lon="5.53743">
        <ele>1068.734375</ele>
        <time>2013-10-01T19:46:00Z</time>
      </trkpt>
      <trkpt lat="45.18418" lon="5.53728">
        <ele>1069.389282</ele>
        <time>2013-10-01T19:46:14Z</time>
      </trkpt>
      <trkpt lat="45.18455" lon="5.53755">
        <ele>1072.132324</ele>
        <time>2013-10-01T19:46:25Z</time>
      </trkpt>
      <trkpt lat="45.1847" lon="5.53775">
        <ele>1073.310547</ele>
        <time>2013-10-01T19:46:30Z</time>
      </trkpt>
      <trkpt lat="45.18517" lon="5.53808">
        <ele>1077.241333</ele>
        <time>2013-10-01T19:46:44Z</time>
      </trkpt>
      <trkpt lat="45.18556" lon="5.53823">
        <ele>1079.706909</ele>
        <time>2013-10-01T19:46:55Z</time>
      </trkpt>
      <trkpt lat="45.18604" lon="5.53823">
        <ele>1083.091187</ele>
        <time>2013-10-01T19:47:08Z</time>
      </trkpt>
      <trkpt lat="45.18632" lon="5.53836">
        <ele>1086.337402</ele>
        <time>2013-10-01T19:47:16Z</time>
      </trkpt>
      <trkpt lat="45.18654" lon="5.53819">
        <ele>1088.431152</ele>
        <time>2013-10-01T19:47:22Z</time>
      </trkpt>
      <trkpt lat="45.18674" lon="5.53821">
        <ele>1091.01709</ele>
        <time>2013-10-01T19:47:28Z</time>
      </trkpt>
      <trkpt lat="45.187" lon="5.53845">
        <ele>1094.747681</ele>
        <time>2013-10-01T19:47:36Z</time>
      </trkpt>
      <trkpt lat="45.18774" lon="5.53878">
        <ele>1102.335327</ele>
        <time>2013-10-01T19:47:57Z</time>
      </trkpt>
      <trkpt lat="45.188" lon="5.53882">
        <ele>1104.598145</ele>
        <time>2013-10-01T19:48:04Z</time>
      </trkpt>
      <trkpt lat="45.18838" lon="5.5388">
        <ele>1107.734863</ele>
        <time>2013-10-01T19:48:14Z</time>
      </trkpt>
      <trkpt lat="45.18864" lon="5.5387">
        <ele>1109.902344</ele>
        <time>2013-10-01T19:48:21Z</time>
      </trkpt>
      <trkpt lat="45.18894" lon="5.53882">
        <ele>1112.305054</ele>
        <time>2013-10-01T19:48:30Z</time>
      </trkpt>
      <trkpt lat="45.18918" lon="5.53884">
        <ele>1113.847534</ele>
        <time>2013-10-01T19:48:36Z</time>
      </trkpt>
      <trkpt lat="45.18939" lon="5.53874">
        <ele>1115.884155</ele>
        <time>2013-10-01T19:48:42Z</time>
      </trkpt>
      <trkpt lat="45.18957" lon="5.53851">
        <ele>1118.754761</ele>
        <time>2013-10-01T19:48:48Z</time>
      </trkpt>
      <trkpt lat="45.18955" lon="5.53811">
        <ele>1119.378418</ele>
        <time>2013-10-01T19:48:56Z</time>
      </trkpt>
      <trkpt lat="45.18957" lon="5.53784">
        <ele>1121.852539</ele>
        <time>2013-10-01T19:49:01Z</time>
      </trkpt>
      <trkpt lat="45.18955" lon="5.53756">
        <ele>1123.821777</ele>
        <time>2013-10-01T19:49:06Z</time>
      </trkpt>
      <trkpt lat="45.18942" lon="5.53719">
        <ele>1124.241089</ele>
        <time>2013-10-01T19:49:14Z</time>
      </trkpt>
      <trkpt lat="45.18941" lon="5.53704">
        <ele>1125.110962</ele>
        <time>2013-10-01T19:49:17Z</time>
      </trkpt>
      <trkpt lat="45.18929" lon="5.53667">
        <ele>1127.043091</ele>
        <time>2013-10-01T19:49:25Z</time>
      </trkpt>
      <trkpt lat="45.18841" lon="5.53611">
        <ele>1121.905029</ele>
        <time>2013-10-01T19:49:50Z</time>
      </trkpt>
      <trkpt lat="45.18821" lon="5.53586">
        <ele>1121.067505</ele>
        <time>2013-10-01T19:49:57Z</time>
      </trkpt>
      <trkpt lat="45.18821" lon="5.53577">
        <ele>1121.827515</ele>
        <time>2013-10-01T19:49:59Z</time>
      </trkpt>
      <trkpt lat="45.1883" lon="5.53564">
        <ele>1124.3125</ele>
        <time>2013-10-01T19:50:02Z</time>
      </trkpt>
      <trkpt lat="45.18836" lon="5.5352">
        <ele>1129.813721</ele>
        <time>2013-10-01T19:50:11Z</time>
      </trkpt>
      <trkpt lat="45.18833" lon="5.53509">
        <ele>1130.382446</ele>
        <time>2013-10-01T19:50:13Z</time>
      </trkpt>
      <trkpt lat="45.18843" lon="5.53496">
        <ele>1133.550049</ele>
        <time>2013-10-01T19:50:17Z</time>
      </trkpt>
      <trkpt lat="45.18855" lon="5.53492">
        <ele>1135.82019</ele>
        <time>2013-10-01T19:50:20Z</time>
      </trkpt>
      <trkpt lat="45.18864" lon="5.53495">
        <ele>1137.451172</ele>
        <time>2013-10-01T19:50:22Z</time>
      </trkpt>
      <trkpt lat="45.18887" lon="5.53529">
        <ele>1138.101563</ele>
        <time>2013-10-01T19:50:31Z</time>
      </trkpt>
      <trkpt lat="45.18892" lon="5.53548">
        <ele>1136.966431</ele>
        <time>2013-10-01T19:50:35Z</time>
      </trkpt>
      <trkpt lat="45.18899" lon="5.53556">
        <ele>1137.373169</ele>
        <time>2013-10-01T19:50:38Z</time>
      </trkpt>
      <trkpt lat="45.18922" lon="5.53563">
        <ele>1140.543457</ele>
        <time>2013-10-01T19:50:44Z</time>
      </trkpt>
      <trkpt lat="45.18945" lon="5.53564">
        <ele>1144.439941</ele>
        <time>2013-10-01T19:50:50Z</time>
      </trkpt>
      <trkpt lat="45.18973" lon="5.53551">
        <ele>1150.19519</ele>
        <time>2013-10-01T19:50:58Z</time>
      </trkpt>
      <trkpt lat="45.18993" lon="5.5353">
        <ele>1155.28125</ele>
        <time>2013-10-01T19:51:04Z</time>
      </trkpt>
      <trkpt lat="45.19002" lon="5.53527">
        <ele>1156.359009</ele>
        <time>2013-10-01T19:51:07Z</time>
      </trkpt>
      <trkpt lat="45.1902" lon="5.53534">
        <ele>1157.262451</ele>
        <time>2013-10-01T19:51:12Z</time>
      </trkpt>
      <trkpt lat="45.19049" lon="5.53573">
        <ele>1160.685913</ele>
        <time>2013-10-01T19:51:23Z</time>
      </trkpt>
      <trkpt lat="45.19097" lon="5.53652">
        <ele>1165.005737</ele>
        <time>2013-10-01T19:51:42Z</time>
      </trkpt>
      <trkpt lat="45.19111" lon="5.53657">
        <ele>1165.732666</ele>
        <time>2013-10-01T19:51:46Z</time>
      </trkpt>
      <trkpt lat="45.19181" lon="5.53651">
        <ele>1176.263916</ele>
        <time>2013-10-01T19:52:05Z</time>
      </trkpt>
      <trkpt lat="45.19226" lon="5.53661">
        <ele>1181.256958</ele>
        <time>2013-10-01T19:52:17Z</time>
      </trkpt>
      <trkpt lat="45.19266" lon="5.53687">
        <ele>1181.098633</ele>
        <time>2013-10-01T19:52:29Z</time>
      </trkpt>
      <trkpt lat="45.19352" lon="5.53701">
        <ele>1191.643799</ele>
        <time>2013-10-01T19:52:52Z</time>
      </trkpt>
      <trkpt lat="45.19396" lon="5.53682">
        <ele>1200.102661</ele>
        <time>2013-10-01T19:53:04Z</time>
      </trkpt>
      <trkpt lat="45.19455" lon="5.53694">
        <ele>1204.876587</ele>
        <time>2013-10-01T19:53:20Z</time>
      </trkpt>
      <trkpt lat="45.19516" lon="5.53694">
        <ele>1212.314941</ele>
        <time>2013-10-01T19:53:36Z</time>
      </trkpt>
      <trkpt lat="45.19535" lon="5.53705">
        <ele>1212.707642</ele>
        <time>2013-10-01T19:53:42Z</time>
      </trkpt>
      <trkpt lat="45.19545" lon="5.537">
        <ele>1214.724121</ele>
        <time>2013-10-01T19:53:44Z</time>
      </trkpt>
      <trkpt lat="45.19559" lon="5.5368">
        <ele>1219.391602</ele>
        <time>2013-10-01T19:53:50Z</time>
      </trkpt>
      <trkpt lat="45.19587" lon="5.53664">
        <ele>1225.121094</ele>
        <time>2013-10-01T19:53:58Z</time>
      </trkpt>
      <trkpt lat="45.1963" lon="5.53665">
        <ele>1230.530029</ele>
        <time>2013-10-01T19:54:09Z</time>
      </trkpt>
      <trkpt lat="45.19663" lon="5.53684">
        <ele>1232.776245</ele>
        <time>2013-10-01T19:54:19Z</time>
      </trkpt>
      <trkpt lat="45.19747" lon="5.53747">
        <ele>1241.134766</ele>
        <time>2013-10-01T19:54:44Z</time>
      </trkpt>
      <trkpt lat="45.19763" lon="5.53751">
        <ele>1242.606201</ele>
        <time>2013-10-01T19:54:48Z</time>
      </trkpt>
      <trkpt lat="45.19791" lon="5.53743">
        <ele>1247.075195</ele>
        <time>2013-10-01T19:54:56Z</time>
      </trkpt>
      <trkpt lat="45.19797" lon="5.53737">
        <ele>1248.191406</ele>
        <time>2013-10-01T19:54:58Z</time>
      </trkpt>
      <trkpt lat="45.19843" lon="5.53722">
        <ele>1255.13501</ele>
        <time>2013-10-01T19:55:11Z</time>
      </trkpt>
      <trkpt lat="45.19921" lon="5.53718">
        <ele>1264.239624</ele>
        <time>2013-10-01T19:55:31Z</time>
      </trkpt>
      <trkpt lat="45.19964" lon="5.53722">
        <ele>1268.46228</ele>
        <time>2013-10-01T19:55:43Z</time>
      </trkpt>
      <trkpt lat="45.20016" lon="5.53711">
        <ele>1274.283813</ele>
        <time>2013-10-01T19:55:57Z</time>
      </trkpt>
      <trkpt lat="45.20087" lon="5.53751">
        <ele>1281.37915</ele>
        <time>2013-10-01T19:56:17Z</time>
      </trkpt>
      <trkpt lat="45.20096" lon="5.5376">
        <ele>1282.943604</ele>
        <time>2013-10-01T19:56:20Z</time>
      </trkpt>
      <trkpt lat="45.20106" lon="5.53784">
        <ele>1284.050049</ele>
        <time>2013-10-01T19:56:26Z</time>
      </trkpt>
      <trkpt lat="45.20109" lon="5.53802">
        <ele>1283.869507</ele>
        <time>2013-10-01T19:56:29Z</time>
      </trkpt>
      <trkpt lat="45.20117" lon="5.53813">
        <ele>1284.444336</ele>
        <time>2013-10-01T19:56:32Z</time>
      </trkpt>
      <trkpt lat="45.20148" lon="5.53823">
        <ele>1288.269653</ele>
        <time>2013-10-01T19:56:41Z</time>
      </trkpt>
      <trkpt lat="45.20169" lon="5.5381">
        <ele>1291.460205</ele>
        <time>2013-10-01T19:56:47Z</time>
      </trkpt>
      <trkpt lat="45.20208" lon="5.53798">
        <ele>1298.179932</ele>
        <time>2013-10-01T19:56:57Z</time>
      </trkpt>
      <trkpt lat="45.20235" lon="5.53807">
        <ele>1301.13623</ele>
        <time>2013-10-01T19:57:05Z</time>
      </trkpt>
      <trkpt lat="45.20251" lon="5.53823">
        <ele>1301.577515</ele>
        <time>2013-10-01T19:57:10Z</time>
      </trkpt>
      <trkpt lat="45.20262" lon="5.53864">
        <ele>1303.34729</ele>
        <time>2013-10-01T19:57:18Z</time>
      </trkpt>
      <trkpt lat="45.20267" lon="5.53874">
        <ele>1304.127197</ele>
        <time>2013-10-01T19:57:20Z</time>
      </trkpt>
      <trkpt lat="45.20298" lon="5.53888">
        <ele>1307.376465</ele>
        <time>2013-10-01T19:57:29Z</time>
      </trkpt>
      <trkpt lat="45.20325" lon="5.53892">
        <ele>1309.745728</ele>
        <time>2013-10-01T19:57:36Z</time>
      </trkpt>
      <trkpt lat="45.20339" lon="5.53915">
        <ele>1313.99231</ele>
        <time>2013-10-01T19:57:42Z</time>
      </trkpt>
      <trkpt lat="45.20339" lon="5.53927">
        <ele>1315.160645</ele>
        <time>2013-10-01T19:57:44Z</time>
      </trkpt>
      <trkpt lat="45.20332" lon="5.53943">
        <ele>1316.167847</ele>
        <time>2013-10-01T19:57:48Z</time>
      </trkpt>
      <trkpt lat="45.20314" lon="5.53968">
        <ele>1316.655029</ele>
        <time>2013-10-01T19:57:54Z</time>
      </trkpt>
      <trkpt lat="45.20278" lon="5.54035">
        <ele>1319.56189</ele>
        <time>2013-10-01T19:58:10Z</time>
      </trkpt>
      <trkpt lat="45.20269" lon="5.54046">
        <ele>1320.289795</ele>
        <time>2013-10-01T19:58:13Z</time>
      </trkpt>
      <trkpt lat="45.20195" lon="5.54061">
        <ele>1318.077515</ele>
        <time>2013-10-01T19:58:33Z</time>
      </trkpt>
      <trkpt lat="45.20148" lon="5.54085">
        <ele>1321.025513</ele>
        <time>2013-10-01T19:58:47Z</time>
      </trkpt>
      <trkpt lat="45.2011" lon="5.54088">
        <ele>1322.834961</ele>
        <time>2013-10-01T19:58:57Z</time>
      </trkpt>
      <trkpt lat="45.2008" lon="5.54083">
        <ele>1323.088745</ele>
        <time>2013-10-01T19:59:05Z</time>
      </trkpt>
      <trkpt lat="45.20035" lon="5.54045">
        <ele>1318.359985</ele>
        <time>2013-10-01T19:59:19Z</time>
      </trkpt>
      <trkpt lat="45.20016" lon="5.54046">
        <ele>1320.162354</ele>
        <time>2013-10-01T19:59:24Z</time>
      </trkpt>
      <trkpt lat="45.19999" lon="5.54052">
        <ele>1321.822021</ele>
        <time>2013-10-01T19:59:29Z</time>
      </trkpt>
      <trkpt lat="45.19902" lon="5.54108">
        <ele>1323.413574</ele>
        <time>2013-10-01T19:59:56Z</time>
      </trkpt>
      <trkpt lat="45.19899" lon="5.54114">
        <ele>1324.096313</ele>
        <time>2013-10-01T19:59:58Z</time>
      </trkpt>
      <trkpt lat="45.19901" lon="5.5412">
        <ele>1325.766479</ele>
        <time>2013-10-01T19:59:59Z</time>
      </trkpt>
      <trkpt lat="45.19894" lon="5.54117">
        <ele>1324.0448</ele>
        <time>2013-10-01T20:00:01Z</time>
      </trkpt>
      <trkpt lat="45.19835" lon="5.54163">
        <ele>1320.287476</ele>
        <time>2013-10-01T20:00:19Z</time>
      </trkpt>
      <trkpt lat="45.19823" lon="5.5418">
        <ele>1320.305054</ele>
        <time>2013-10-01T20:00:23Z</time>
      </trkpt>
      <trkpt lat="45.19808" lon="5.54209">
        <ele>1319.627563</ele>
        <time>2013-10-01T20:00:30Z</time>
      </trkpt>
      <trkpt lat="45.19788" lon="5.54236">
        <ele>1316.972534</ele>
        <time>2013-10-01T20:00:38Z</time>
      </trkpt>
      <trkpt lat="45.19782" lon="5.5425">
        <ele>1316.120972</ele>
        <time>2013-10-01T20:00:41Z</time>
      </trkpt>
      <trkpt lat="45.19777" lon="5.54285">
        <ele>1315.126709</ele>
        <time>2013-10-01T20:00:47Z</time>
      </trkpt>
      <trkpt lat="45.19801" lon="5.54386">
        <ele>1321.089966</ele>
        <time>2013-10-01T20:01:07Z</time>
      </trkpt>
      <trkpt lat="45.19799" lon="5.54405">
        <ele>1321.175049</ele>
        <time>2013-10-01T20:01:11Z</time>
      </trkpt>
      <trkpt lat="45.19764" lon="5.54467">
        <ele>1316.011597</ele>
        <time>2013-10-01T20:01:26Z</time>
      </trkpt>
      <trkpt lat="45.19666" lon="5.54586">
        <ele>1305.331299</ele>
        <time>2013-10-01T20:02:00Z</time>
      </trkpt>
      <trkpt lat="45.1966" lon="5.54603">
        <ele>1305.856201</ele>
        <time>2013-10-01T20:02:04Z</time>
      </trkpt>
      <trkpt lat="45.19668" lon="5.54721">
        <ele>1310.195557</ele>
        <time>2013-10-01T20:02:26Z</time>
      </trkpt>
      <trkpt lat="45.19673" lon="5.54739">
        <ele>1310.265747</ele>
        <time>2013-10-01T20:02:30Z</time>
      </trkpt>
      <trkpt lat="45.197" lon="5.54787">
        <ele>1309.858521</ele>
        <time>2013-10-01T20:02:41Z</time>
      </trkpt>
      <trkpt lat="45.19702" lon="5.54806">
        <ele>1308.192139</ele>
        <time>2013-10-01T20:02:45Z</time>
      </trkpt>
      <trkpt lat="45.19678" lon="5.54896">
        <ele>1297.391968</ele>
        <time>2013-10-01T20:03:03Z</time>
      </trkpt>
      <trkpt lat="45.19689" lon="5.54915">
        <ele>1295.630249</ele>
        <time>2013-10-01T20:03:08Z</time>
      </trkpt>
      <trkpt lat="45.19725" lon="5.54927">
        <ele>1295.122437</ele>
        <time>2013-10-01T20:03:18Z</time>
      </trkpt>
      <trkpt lat="45.19749" lon="5.54929">
        <ele>1294.589966</ele>
        <time>2013-10-01T20:03:24Z</time>
      </trkpt>
      <trkpt lat="45.19773" lon="5.54916">
        <ele>1294.633789</ele>
        <time>2013-10-01T20:03:31Z</time>
      </trkpt>
      <trkpt lat="45.19806" lon="5.54889">
        <ele>1294.875</ele>
        <time>2013-10-01T20:03:41Z</time>
      </trkpt>
      <trkpt lat="45.19851" lon="5.5486">
        <ele>1293.125122</ele>
        <time>2013-10-01T20:03:54Z</time>
      </trkpt>
      <trkpt lat="45.1988" lon="5.54836">
        <ele>1292.828735</ele>
        <time>2013-10-01T20:04:03Z</time>
      </trkpt>
      <trkpt lat="45.1994" lon="5.54774">
        <ele>1299.867676</ele>
        <time>2013-10-01T20:04:23Z</time>
      </trkpt>
      <trkpt lat="45.19956" lon="5.5478">
        <ele>1298.900269</ele>
        <time>2013-10-01T20:04:28Z</time>
      </trkpt>
      <trkpt lat="45.1996" lon="5.54786">
        <ele>1297.876587</ele>
        <time>2013-10-01T20:04:29Z</time>
      </trkpt>
      <trkpt lat="45.19966" lon="5.54854">
        <ele>1288.21582</ele>
        <time>2013-10-01T20:04:42Z</time>
      </trkpt>
      <trkpt lat="45.19976" lon="5.54885">
        <ele>1286.349609</ele>
        <time>2013-10-01T20:04:48Z</time>
      </trkpt>
      <trkpt lat="45.19992" lon="5.5492">
        <ele>1292.13855</ele>
        <time>2013-10-01T20:04:56Z</time>
      </trkpt>
      <trkpt lat="45.19988" lon="5.54935">
        <ele>1292.491455</ele>
        <time>2013-10-01T20:04:59Z</time>
      </trkpt>
      <trkpt lat="45.19933" lon="5.55015">
        <ele>1280.513672</ele>
        <time>2013-10-01T20:05:20Z</time>
      </trkpt>
      <trkpt lat="45.19924" lon="5.55049">
        <ele>1280.53418</ele>
        <time>2013-10-01T20:05:27Z</time>
      </trkpt>
      <trkpt lat="45.19922" lon="5.55097">
        <ele>1281.776611</ele>
        <time>2013-10-01T20:05:36Z</time>
      </trkpt>
      <trkpt lat="45.19914" lon="5.55128">
        <ele>1279.572998</ele>
        <time>2013-10-01T20:05:42Z</time>
      </trkpt>
      <trkpt lat="45.19897" lon="5.5515">
        <ele>1276.052856</ele>
        <time>2013-10-01T20:05:49Z</time>
      </trkpt>
      <trkpt lat="45.19874" lon="5.5516">
        <ele>1272.059814</ele>
        <time>2013-10-01T20:05:55Z</time>
      </trkpt>
      <trkpt lat="45.19783" lon="5.55172">
        <ele>1262.613037</ele>
        <time>2013-10-01T20:06:19Z</time>
      </trkpt>
      <trkpt lat="45.19766" lon="5.55183">
        <ele>1261.947388</ele>
        <time>2013-10-01T20:06:24Z</time>
      </trkpt>
      <trkpt lat="45.19744" lon="5.55217">
        <ele>1261.496704</ele>
        <time>2013-10-01T20:06:33Z</time>
      </trkpt>
      <trkpt lat="45.19723" lon="5.5528">
        <ele>1259.310059</ele>
        <time>2013-10-01T20:06:46Z</time>
      </trkpt>
      <trkpt lat="45.19708" lon="5.55306">
        <ele>1257.092529</ele>
        <time>2013-10-01T20:06:52Z</time>
      </trkpt>
      <trkpt lat="45.19707" lon="5.55322">
        <ele>1256.619873</ele>
        <time>2013-10-01T20:06:55Z</time>
      </trkpt>
      <trkpt lat="45.19712" lon="5.55337">
        <ele>1256.08374</ele>
        <time>2013-10-01T20:06:59Z</time>
      </trkpt>
      <trkpt lat="45.19759" lon="5.55389">
        <ele>1255.77002</ele>
        <time>2013-10-01T20:07:15Z</time>
      </trkpt>
      <trkpt lat="45.19863" lon="5.55471">
        <ele>1251.874023</ele>
        <time>2013-10-01T20:07:46Z</time>
      </trkpt>
      <trkpt lat="45.19872" lon="5.55484">
        <ele>1251.187988</ele>
        <time>2013-10-01T20:07:50Z</time>
      </trkpt>
      <trkpt lat="45.19874" lon="5.55499">
        <ele>1249.535034</ele>
        <time>2013-10-01T20:07:53Z</time>
      </trkpt>
      <trkpt lat="45.19869" lon="5.55528">
        <ele>1245.732544</ele>
        <time>2013-10-01T20:07:58Z</time>
      </trkpt>
      <trkpt lat="45.19881" lon="5.55556">
        <ele>1246.443115</ele>
        <time>2013-10-01T20:08:04Z</time>
      </trkpt>
      <trkpt lat="45.19884" lon="5.55614">
        <ele>1242.786499</ele>
        <time>2013-10-01T20:08:15Z</time>
      </trkpt>
      <trkpt lat="45.19894" lon="5.55641">
        <ele>1240.997925</ele>
        <time>2013-10-01T20:08:21Z</time>
      </trkpt>
      <trkpt lat="45.19906" lon="5.55651">
        <ele>1240.487427</ele>
        <time>2013-10-01T20:08:25Z</time>
      </trkpt>
      <trkpt lat="45.19959" lon="5.55666">
        <ele>1238.914307</ele>
        <time>2013-10-01T20:08:39Z</time>
      </trkpt>
      <trkpt lat="45.19966" lon="5.55685">
        <ele>1235.940796</ele>
        <time>2013-10-01T20:08:43Z</time>
      </trkpt>
      <trkpt lat="45.19959" lon="5.55704">
        <ele>1232.321777</ele>
        <time>2013-10-01T20:08:47Z</time>
      </trkpt>
      <trkpt lat="45.19932" lon="5.55713">
        <ele>1229.830444</ele>
        <time>2013-10-01T20:08:55Z</time>
      </trkpt>
      <trkpt lat="45.19933" lon="5.5572">
        <ele>1228.833618</ele>
        <time>2013-10-01T20:08:56Z</time>
      </trkpt>
      <trkpt lat="45.1994" lon="5.55727">
        <ele>1228.081543</ele>
        <time>2013-10-01T20:08:58Z</time>
      </trkpt>
      <trkpt lat="45.19981" lon="5.55721">
        <ele>1231.133057</ele>
        <time>2013-10-01T20:09:09Z</time>
      </trkpt>
      <trkpt lat="45.19981" lon="5.55726">
        <ele>1230.587891</ele>
        <time>2013-10-01T20:09:10Z</time>
      </trkpt>
      <trkpt lat="45.2006" lon="5.5574">
        <ele>1236.802002</ele>
        <time>2013-10-01T20:09:31Z</time>
      </trkpt>
      <trkpt lat="45.20083" lon="5.5575">
        <ele>1238.811279</ele>
        <time>2013-10-01T20:09:38Z</time>
      </trkpt>
      <trkpt lat="45.20092" lon="5.5576">
        <ele>1238.939575</ele>
        <time>2013-10-01T20:09:41Z</time>
      </trkpt>
      <trkpt lat="45.20113" lon="5.55768">
        <ele>1240.194458</ele>
        <time>2013-10-01T20:09:46Z</time>
      </trkpt>
      <trkpt lat="45.20186" lon="5.55816">
        <ele>1243.692505</ele>
        <time>2013-10-01T20:10:08Z</time>
      </trkpt>
      <trkpt lat="45.20195" lon="5.55873">
        <ele>1243.457886</ele>
        <time>2013-10-01T20:10:19Z</time>
      </trkpt>
      <trkpt lat="45.2021" lon="5.55917">
        <ele>1245.030518</ele>
        <time>2013-10-01T20:10:28Z</time>
      </trkpt>
      <trkpt lat="45.20223" lon="5.55933">
        <ele>1247.206909</ele>
        <time>2013-10-01T20:10:33Z</time>
      </trkpt>
      <trkpt lat="45.20254" lon="5.55946">
        <ele>1250.402832</ele>
        <time>2013-10-01T20:10:41Z</time>
      </trkpt>
      <trkpt lat="45.20269" lon="5.5596">
        <ele>1253.349976</ele>
        <time>2013-10-01T20:10:46Z</time>
      </trkpt>
      <trkpt lat="45.2028" lon="5.55964">
        <ele>1254.617554</ele>
        <time>2013-10-01T20:10:49Z</time>
      </trkpt>
      <trkpt lat="45.20328" lon="5.55955">
        <ele>1256.29834</ele>
        <time>2013-10-01T20:11:02Z</time>
      </trkpt>
      <trkpt lat="45.20384" lon="5.55935">
        <ele>1257.309814</ele>
        <time>2013-10-01T20:11:17Z</time>
      </trkpt>
      <trkpt lat="45.20423" lon="5.55931">
        <ele>1260.026123</ele>
        <time>2013-10-01T20:11:28Z</time>
      </trkpt>
      <trkpt lat="45.20451" lon="5.55922">
        <ele>1264.424805</ele>
        <time>2013-10-01T20:11:36Z</time>
      </trkpt>
      <trkpt lat="45.20558" lon="5.55961">
        <ele>1274.442993</ele>
        <time>2013-10-01T20:12:05Z</time>
      </trkpt>
      <trkpt lat="45.20581" lon="5.55951">
        <ele>1274.226196</ele>
        <time>2013-10-01T20:12:11Z</time>
      </trkpt>
      <trkpt lat="45.20588" lon="5.55953">
        <ele>1274.495117</ele>
        <time>2013-10-01T20:12:13Z</time>
      </trkpt>
      <trkpt lat="45.20637" lon="5.55933">
        <ele>1274.822266</ele>
        <time>2013-10-01T20:12:27Z</time>
      </trkpt>
      <trkpt lat="45.20651" lon="5.55921">
        <ele>1274.439087</ele>
        <time>2013-10-01T20:12:32Z</time>
      </trkpt>
      <trkpt lat="45.20671" lon="5.55892">
        <ele>1270.208008</ele>
        <time>2013-10-01T20:12:39Z</time>
      </trkpt>
      <trkpt lat="45.20711" lon="5.55862">
        <ele>1271.56897</ele>
        <time>2013-10-01T20:12:51Z</time>
      </trkpt>
      <trkpt lat="45.20756" lon="5.55855">
        <ele>1274.615234</ele>
        <time>2013-10-01T20:13:03Z</time>
      </trkpt>
      <trkpt lat="45.20785" lon="5.55861">
        <ele>1276.839966</ele>
        <time>2013-10-01T20:13:11Z</time>
      </trkpt>
      <trkpt lat="45.20794" lon="5.55856">
        <ele>1276.415649</ele>
        <time>2013-10-01T20:13:13Z</time>
      </trkpt>
      <trkpt lat="45.20851" lon="5.55863">
        <ele>1278.158936</ele>
        <time>2013-10-01T20:13:29Z</time>
      </trkpt>
      <trkpt lat="45.20896" lon="5.55863">
        <ele>1278.905518</ele>
        <time>2013-10-01T20:13:41Z</time>
      </trkpt>
      <trkpt lat="45.20925" lon="5.55874">
        <ele>1280.723389</ele>
        <time>2013-10-01T20:13:49Z</time>
      </trkpt>
      <trkpt lat="45.2095" lon="5.55894">
        <ele>1282.510742</ele>
        <time>2013-10-01T20:13:56Z</time>
      </trkpt>
      <trkpt lat="45.20954" lon="5.55902">
        <ele>1282.963745</ele>
        <time>2013-10-01T20:13:58Z</time>
      </trkpt>
      <trkpt lat="45.20986" lon="5.5593">
        <ele>1289.067383</ele>
        <time>2013-10-01T20:14:08Z</time>
      </trkpt>
      <trkpt lat="45.21" lon="5.55937">
        <ele>1290.791992</ele>
        <time>2013-10-01T20:14:12Z</time>
      </trkpt>
      <trkpt lat="45.21035" lon="5.55932">
        <ele>1290.116211</ele>
        <time>2013-10-01T20:14:22Z</time>
      </trkpt>
      <trkpt lat="45.2106" lon="5.55912">
        <ele>1286.266846</ele>
        <time>2013-10-01T20:14:29Z</time>
      </trkpt>
      <trkpt lat="45.21086" lon="5.55912">
        <ele>1286.446289</ele>
        <time>2013-10-01T20:14:36Z</time>
      </trkpt>
      <trkpt lat="45.21198" lon="5.55953">
        <ele>1292.234009</ele>
        <time>2013-10-01T20:15:07Z</time>
      </trkpt>
      <trkpt lat="45.21237" lon="5.55972">
        <ele>1293.515503</ele>
        <time>2013-10-01T20:15:18Z</time>
      </trkpt>
      <trkpt lat="45.21297" lon="5.55988">
        <ele>1293.206421</ele>
        <time>2013-10-01T20:15:35Z</time>
      </trkpt>
      <trkpt lat="45.21336" lon="5.56005">
        <ele>1292.835693</ele>
        <time>2013-10-01T20:15:45Z</time>
      </trkpt>
      <trkpt lat="45.21357" lon="5.56008">
        <ele>1292.5625</ele>
        <time>2013-10-01T20:15:51Z</time>
      </trkpt>
      <trkpt lat="45.21637" lon="5.55992">
        <ele>1297.755737</ele>
        <time>2013-10-01T20:17:06Z</time>
      </trkpt>
      <trkpt lat="45.21811" lon="5.5602">
        <ele>1298</ele>
        <time>2013-10-01T20:17:52Z</time>
      </trkpt>
      <trkpt lat="45.21809" lon="5.56017">
        <ele>1298</ele>
        <time>2013-10-01T20:17:53Z</time>
      </trkpt>
      <trkpt lat="45.21841" lon="5.56094">
        <ele>1298</ele>
        <time>2013-10-01T20:18:10Z</time>
      </trkpt>
      <trkpt lat="45.21936" lon="5.5626">
        <ele>1300.039673</ele>
        <time>2013-10-01T20:18:50Z</time>
      </trkpt>
      <trkpt lat="45.21951" lon="5.56301">
        <ele>1303.030029</ele>
        <time>2013-10-01T20:18:59Z</time>
      </trkpt>
      <trkpt lat="45.21977" lon="5.56356">
        <ele>1304.951294</ele>
        <time>2013-10-01T20:19:11Z</time>
      </trkpt>
      <trkpt lat="45.21987" lon="5.56388">
        <ele>1309.014282</ele>
        <time>2013-10-01T20:19:18Z</time>
      </trkpt>
      <trkpt lat="45.21998" lon="5.56403">
        <ele>1309.374268</ele>
        <time>2013-10-01T20:19:22Z</time>
      </trkpt>
      <trkpt lat="45.22" lon="5.56412">
        <ele>1310.035889</ele>
        <time>2013-10-01T20:19:23Z</time>
      </trkpt>
      <trkpt lat="45.22051" lon="5.56488">
        <ele>1314.770752</ele>
        <time>2013-10-01T20:19:43Z</time>
      </trkpt>
      <trkpt lat="45.22063" lon="5.56524">
        <ele>1316.253784</ele>
        <time>2013-10-01T20:19:51Z</time>
      </trkpt>
      <trkpt lat="45.2207" lon="5.56533">
        <ele>1316.621216</ele>
        <time>2013-10-01T20:19:53Z</time>
      </trkpt>
      <trkpt lat="45.22079" lon="5.56569">
        <ele>1317.781006</ele>
        <time>2013-10-01T20:20:00Z</time>
      </trkpt>
      <trkpt lat="45.22086" lon="5.56623">
        <ele>1318.38501</ele>
        <time>2013-10-01T20:20:11Z</time>
      </trkpt>
      <trkpt lat="45.22077" lon="5.56661">
        <ele>1318.72998</ele>
        <time>2013-10-01T20:20:18Z</time>
      </trkpt>
      <trkpt lat="45.22033" lon="5.56733">
        <ele>1321.869995</ele>
        <time>2013-10-01T20:20:36Z</time>
      </trkpt>
      <trkpt lat="45.22017" lon="5.56795">
        <ele>1323.179565</ele>
        <time>2013-10-01T20:20:48Z</time>
      </trkpt>
      <trkpt lat="45.22008" lon="5.5682">
        <ele>1326.291748</ele>
        <time>2013-10-01T20:20:54Z</time>
      </trkpt>
      <trkpt lat="45.22005" lon="5.56839">
        <ele>1328.353271</ele>
        <time>2013-10-01T20:20:57Z</time>
      </trkpt>
      <trkpt lat="45.21978" lon="5.56893">
        <ele>1336.351563</ele>
        <time>2013-10-01T20:21:10Z</time>
      </trkpt>
      <trkpt lat="45.21972" lon="5.56898">
        <ele>1336.583252</ele>
        <time>2013-10-01T20:21:12Z</time>
      </trkpt>
      <trkpt lat="45.21938" lon="5.56893">
        <ele>1332.992554</ele>
        <time>2013-10-01T20:21:21Z</time>
      </trkpt>
      <trkpt lat="45.21914" lon="5.56914">
        <ele>1332.079956</ele>
        <time>2013-10-01T20:21:28Z</time>
      </trkpt>
      <trkpt lat="45.21908" lon="5.56928">
        <ele>1334.179932</ele>
        <time>2013-10-01T20:21:31Z</time>
      </trkpt>
      <trkpt lat="45.21908" lon="5.5694">
        <ele>1336.429932</ele>
        <time>2013-10-01T20:21:34Z</time>
      </trkpt>
      <trkpt lat="45.21912" lon="5.56946">
        <ele>1338.079956</ele>
        <time>2013-10-01T20:21:35Z</time>
      </trkpt>
      <trkpt lat="45.21929" lon="5.56951">
        <ele>1341.094971</ele>
        <time>2013-10-01T20:21:40Z</time>
      </trkpt>
      <trkpt lat="45.21979" lon="5.5694">
        <ele>1345.025024</ele>
        <time>2013-10-01T20:21:53Z</time>
      </trkpt>
      <trkpt lat="45.2199" lon="5.56945">
        <ele>1347.305054</ele>
        <time>2013-10-01T20:21:56Z</time>
      </trkpt>
      <trkpt lat="45.22" lon="5.56962">
        <ele>1351.929565</ele>
        <time>2013-10-01T20:22:00Z</time>
      </trkpt>
      <trkpt lat="45.21988" lon="5.57021">
        <ele>1355.68042</ele>
        <time>2013-10-01T20:22:12Z</time>
      </trkpt>
      <trkpt lat="45.21989" lon="5.57051">
        <ele>1356.206299</ele>
        <time>2013-10-01T20:22:18Z</time>
      </trkpt>
      <trkpt lat="45.22008" lon="5.57092">
        <ele>1355.846924</ele>
        <time>2013-10-01T20:22:27Z</time>
      </trkpt>
      <trkpt lat="45.22004" lon="5.57116">
        <ele>1354.048706</ele>
        <time>2013-10-01T20:22:31Z</time>
      </trkpt>
      <trkpt lat="45.21997" lon="5.57131">
        <ele>1352.170898</ele>
        <time>2013-10-01T20:22:35Z</time>
      </trkpt>
      <trkpt lat="45.21997" lon="5.5716">
        <ele>1351.184937</ele>
        <time>2013-10-01T20:22:40Z</time>
      </trkpt>
      <trkpt lat="45.22038" lon="5.57246">
        <ele>1361.348755</ele>
        <time>2013-10-01T20:23:00Z</time>
      </trkpt>
      <trkpt lat="45.22049" lon="5.57246">
        <ele>1363.790039</ele>
        <time>2013-10-01T20:23:02Z</time>
      </trkpt>
      <trkpt lat="45.2206" lon="5.57238">
        <ele>1367.233276</ele>
        <time>2013-10-01T20:23:06Z</time>
      </trkpt>
      <trkpt lat="45.22086" lon="5.57198">
        <ele>1371.699951</ele>
        <time>2013-10-01T20:23:16Z</time>
      </trkpt>
      <trkpt lat="45.22094" lon="5.57194">
        <ele>1372.430054</ele>
        <time>2013-10-01T20:23:18Z</time>
      </trkpt>
      <trkpt lat="45.22103" lon="5.57195">
        <ele>1373.22998</ele>
        <time>2013-10-01T20:23:21Z</time>
      </trkpt>
      <trkpt lat="45.22113" lon="5.57223">
        <ele>1374.150024</ele>
        <time>2013-10-01T20:23:27Z</time>
      </trkpt>
      <trkpt lat="45.2213" lon="5.57256">
        <ele>1375.373291</ele>
        <time>2013-10-01T20:23:34Z</time>
      </trkpt>
      <trkpt lat="45.2216" lon="5.57287">
        <ele>1377.72644</ele>
        <time>2013-10-01T20:23:44Z</time>
      </trkpt>
      <trkpt lat="45.22174" lon="5.57297">
        <ele>1379.087158</ele>
        <time>2013-10-01T20:23:48Z</time>
      </trkpt>
      <trkpt lat="45.22222" lon="5.57293">
        <ele>1383.034546</ele>
        <time>2013-10-01T20:24:01Z</time>
      </trkpt>
      <trkpt lat="45.2223" lon="5.57289">
        <ele>1383.206177</ele>
        <time>2013-10-01T20:24:04Z</time>
      </trkpt>
      <trkpt lat="45.22265" lon="5.57285">
        <ele>1384.108398</ele>
        <time>2013-10-01T20:24:13Z</time>
      </trkpt>
      <trkpt lat="45.22307" lon="5.57262">
        <ele>1383.656128</ele>
        <time>2013-10-01T20:24:25Z</time>
      </trkpt>
      <trkpt lat="45.2235" lon="5.57222">
        <ele>1381.371582</ele>
        <time>2013-10-01T20:24:39Z</time>
      </trkpt>
      <trkpt lat="45.22359" lon="5.57218">
        <ele>1381.659668</ele>
        <time>2013-10-01T20:24:41Z</time>
      </trkpt>
      <trkpt lat="45.22382" lon="5.5723">
        <ele>1385.349121</ele>
        <time>2013-10-01T20:24:48Z</time>
      </trkpt>
      <trkpt lat="45.22407" lon="5.57223">
        <ele>1388.924683</ele>
        <time>2013-10-01T20:24:55Z</time>
      </trkpt>
      <trkpt lat="45.22418" lon="5.57213">
        <ele>1390.032837</ele>
        <time>2013-10-01T20:24:58Z</time>
      </trkpt>
      <trkpt lat="45.22451" lon="5.57163">
        <ele>1392.465088</ele>
        <time>2013-10-01T20:25:11Z</time>
      </trkpt>
      <trkpt lat="45.22465" lon="5.57153">
        <ele>1393.94165</ele>
        <time>2013-10-01T20:25:15Z</time>
      </trkpt>
      <trkpt lat="45.22518" lon="5.5715">
        <ele>1399.00769</ele>
        <time>2013-10-01T20:25:29Z</time>
      </trkpt>
      <trkpt lat="45.22535" lon="5.57156">
        <ele>1400.922485</ele>
        <time>2013-10-01T20:25:34Z</time>
      </trkpt>
      <trkpt lat="45.22562" lon="5.57173">
        <ele>1404.430054</ele>
        <time>2013-10-01T20:25:42Z</time>
      </trkpt>
      <trkpt lat="45.22574" lon="5.57193">
        <ele>1408.488525</ele>
        <time>2013-10-01T20:25:47Z</time>
      </trkpt>
      <trkpt lat="45.22584" lon="5.57257">
        <ele>1418.323242</ele>
        <time>2013-10-01T20:25:59Z</time>
      </trkpt>
      <trkpt lat="45.22599" lon="5.57295">
        <ele>1421.775269</ele>
        <time>2013-10-01T20:26:07Z</time>
      </trkpt>
      <trkpt lat="45.22607" lon="5.57296">
        <ele>1422.082275</ele>
        <time>2013-10-01T20:26:09Z</time>
      </trkpt>
      <trkpt lat="45.2263" lon="5.57313">
        <ele>1422.161499</ele>
        <time>2013-10-01T20:26:16Z</time>
      </trkpt>
      <trkpt lat="45.22631" lon="5.57324">
        <ele>1421.890625</ele>
        <time>2013-10-01T20:26:18Z</time>
      </trkpt>
      <trkpt lat="45.22644" lon="5.57333">
        <ele>1420.655273</ele>
        <time>2013-10-01T20:26:22Z</time>
      </trkpt>
      <trkpt lat="45.22646" lon="5.57338">
        <ele>1420.229126</ele>
        <time>2013-10-01T20:26:23Z</time>
      </trkpt>
      <trkpt lat="45.22679" lon="5.5736">
        <ele>1414.379272</ele>
        <time>2013-10-01T20:26:33Z</time>
      </trkpt>
      <trkpt lat="45.22833" lon="5.57425">
        <ele>1409.814087</ele>
        <time>2013-10-01T20:27:16Z</time>
      </trkpt>
      <trkpt lat="45.22882" lon="5.57422">
        <ele>1417.02417</ele>
        <time>2013-10-01T20:27:29Z</time>
      </trkpt>
      <trkpt lat="45.22937" lon="5.5741">
        <ele>1419.843384</ele>
        <time>2013-10-01T20:27:44Z</time>
      </trkpt>
      <trkpt lat="45.22965" lon="5.57412">
        <ele>1423.154663</ele>
        <time>2013-10-01T20:27:52Z</time>
      </trkpt>
      <trkpt lat="45.22981" lon="5.57418">
        <ele>1423.655029</ele>
        <time>2013-10-01T20:27:56Z</time>
      </trkpt>
      <trkpt lat="45.23001" lon="5.57419">
        <ele>1425.594849</ele>
        <time>2013-10-01T20:28:01Z</time>
      </trkpt>
      <trkpt lat="45.23018" lon="5.57408">
        <ele>1430.385254</ele>
        <time>2013-10-01T20:28:06Z</time>
      </trkpt>
      <trkpt lat="45.23032" lon="5.57406">
        <ele>1433.734497</ele>
        <time>2013-10-01T20:28:10Z</time>
      </trkpt>
      <trkpt lat="45.23055" lon="5.57411">
        <ele>1437.478027</ele>
        <time>2013-10-01T20:28:16Z</time>
      </trkpt>
      <trkpt lat="45.2307" lon="5.5743">
        <ele>1437.466309</ele>
        <time>2013-10-01T20:28:21Z</time>
      </trkpt>
      <trkpt lat="45.23091" lon="5.57485">
        <ele>1438.349365</ele>
        <time>2013-10-01T20:28:33Z</time>
      </trkpt>
      <trkpt lat="45.23092" lon="5.57517">
        <ele>1438.582397</ele>
        <time>2013-10-01T20:28:39Z</time>
      </trkpt>
      <trkpt lat="45.23097" lon="5.57541">
        <ele>1439.793701</ele>
        <time>2013-10-01T20:28:44Z</time>
      </trkpt>
      <trkpt lat="45.23093" lon="5.57609">
        <ele>1445.105835</ele>
        <time>2013-10-01T20:28:57Z</time>
      </trkpt>
      <trkpt lat="45.23101" lon="5.57629">
        <ele>1449.143188</ele>
        <time>2013-10-01T20:29:01Z</time>
      </trkpt>
      <trkpt lat="45.23115" lon="5.57635">
        <ele>1452.721558</ele>
        <time>2013-10-01T20:29:05Z</time>
      </trkpt>
      <trkpt lat="45.23127" lon="5.57622">
        <ele>1454.340454</ele>
        <time>2013-10-01T20:29:09Z</time>
      </trkpt>
      <trkpt lat="45.2313" lon="5.57583">
        <ele>1451.02832</ele>
        <time>2013-10-01T20:29:16Z</time>
      </trkpt>
      <trkpt lat="45.23149" lon="5.57542">
        <ele>1451.817871</ele>
        <time>2013-10-01T20:29:25Z</time>
      </trkpt>
      <trkpt lat="45.23189" lon="5.57505">
        <ele>1456.728516</ele>
        <time>2013-10-01T20:29:38Z</time>
      </trkpt>
      <trkpt lat="45.23211" lon="5.57478">
        <ele>1458.707642</ele>
        <time>2013-10-01T20:29:46Z</time>
      </trkpt>
      <trkpt lat="45.23226" lon="5.57475">
        <ele>1460.542236</ele>
        <time>2013-10-01T20:29:50Z</time>
      </trkpt>
      <trkpt lat="45.233" lon="5.57503">
        <ele>1468.805298</ele>
        <time>2013-10-01T20:30:10Z</time>
      </trkpt>
      <trkpt lat="45.23354" lon="5.57539">
        <ele>1471.847534</ele>
        <time>2013-10-01T20:30:26Z</time>
      </trkpt>
      <trkpt lat="45.23375" lon="5.57543">
        <ele>1472.463745</ele>
        <time>2013-10-01T20:30:32Z</time>
      </trkpt>
      <trkpt lat="45.23387" lon="5.57539">
        <ele>1473.217529</ele>
        <time>2013-10-01T20:30:35Z</time>
      </trkpt>
      <trkpt lat="45.23402" lon="5.57541">
        <ele>1473.849976</ele>
        <time>2013-10-01T20:30:39Z</time>
      </trkpt>
      <trkpt lat="45.23423" lon="5.57565">
        <ele>1474.324951</ele>
        <time>2013-10-01T20:30:47Z</time>
      </trkpt>
      <trkpt lat="45.23445" lon="5.57576">
        <ele>1477.309937</ele>
        <time>2013-10-01T20:30:53Z</time>
      </trkpt>
      <trkpt lat="45.23452" lon="5.57574">
        <ele>1478.571289</ele>
        <time>2013-10-01T20:30:55Z</time>
      </trkpt>
      <trkpt lat="45.23494" lon="5.57587">
        <ele>1488.403687</ele>
        <time>2013-10-01T20:31:06Z</time>
      </trkpt>
      <trkpt lat="45.23514" lon="5.57611">
        <ele>1491.64563</ele>
        <time>2013-10-01T20:31:13Z</time>
      </trkpt>
      <trkpt lat="45.23523" lon="5.57642">
        <ele>1491.018921</ele>
        <time>2013-10-01T20:31:19Z</time>
      </trkpt>
      <trkpt lat="45.23533" lon="5.57655">
        <ele>1490.057251</ele>
        <time>2013-10-01T20:31:23Z</time>
      </trkpt>
      <trkpt lat="45.23569" lon="5.5767">
        <ele>1494.793457</ele>
        <time>2013-10-01T20:31:33Z</time>
      </trkpt>
      <trkpt lat="45.23586" lon="5.57686">
        <ele>1496.318481</ele>
        <time>2013-10-01T20:31:39Z</time>
      </trkpt>
      <trkpt lat="45.23596" lon="5.57689">
        <ele>1497.824951</ele>
        <time>2013-10-01T20:31:41Z</time>
      </trkpt>
      <trkpt lat="45.23613" lon="5.5771">
        <ele>1496.675049</ele>
        <time>2013-10-01T20:31:47Z</time>
      </trkpt>
      <trkpt lat="45.23629" lon="5.57712">
        <ele>1498.224976</ele>
        <time>2013-10-01T20:31:51Z</time>
      </trkpt>
      <trkpt lat="45.23638" lon="5.57705">
        <ele>1500.400024</ele>
        <time>2013-10-01T20:31:54Z</time>
      </trkpt>
      <trkpt lat="45.2368" lon="5.577">
        <ele>1503.253174</ele>
        <time>2013-10-01T20:32:05Z</time>
      </trkpt>
      <trkpt lat="45.23704" lon="5.57714">
        <ele>1503.092529</ele>
        <time>2013-10-01T20:32:12Z</time>
      </trkpt>
      <trkpt lat="45.23721" lon="5.57717">
        <ele>1503.902466</ele>
        <time>2013-10-01T20:32:17Z</time>
      </trkpt>
      <trkpt lat="45.23735" lon="5.57729">
        <ele>1503.589233</ele>
        <time>2013-10-01T20:32:21Z</time>
      </trkpt>
      <trkpt lat="45.23754" lon="5.57735">
        <ele>1505.175171</ele>
        <time>2013-10-01T20:32:26Z</time>
      </trkpt>
      <trkpt lat="45.23767" lon="5.57731">
        <ele>1507.76062</ele>
        <time>2013-10-01T20:32:30Z</time>
      </trkpt>
      <trkpt lat="45.23779" lon="5.57732">
        <ele>1509.400757</ele>
        <time>2013-10-01T20:32:33Z</time>
      </trkpt>
      <trkpt lat="45.23835" lon="5.57761">
        <ele>1510.172485</ele>
        <time>2013-10-01T20:32:49Z</time>
      </trkpt>
      <trkpt lat="45.23875" lon="5.57768">
        <ele>1510.524048</ele>
        <time>2013-10-01T20:33:00Z</time>
      </trkpt>
      <trkpt lat="45.23886" lon="5.57789">
        <ele>1506.074463</ele>
        <time>2013-10-01T20:33:05Z</time>
      </trkpt>
      <trkpt lat="45.23889" lon="5.57816">
        <ele>1498.825928</ele>
        <time>2013-10-01T20:33:10Z</time>
      </trkpt>
      <trkpt lat="45.23894" lon="5.57822">
        <ele>1497.11438</ele>
        <time>2013-10-01T20:33:12Z</time>
      </trkpt>
      <trkpt lat="45.23915" lon="5.57822">
        <ele>1496.321899</ele>
        <time>2013-10-01T20:33:17Z</time>
      </trkpt>
      <trkpt lat="45.23932" lon="5.57814">
        <ele>1497.068237</ele>
        <time>2013-10-01T20:33:22Z</time>
      </trkpt>
      <trkpt lat="45.23961" lon="5.57787">
        <ele>1501.757446</ele>
        <time>2013-10-01T20:33:31Z</time>
      </trkpt>
      <trkpt lat="45.23982" lon="5.5776">
        <ele>1506.564087</ele>
        <time>2013-10-01T20:33:39Z</time>
      </trkpt>
      <trkpt lat="45.23995" lon="5.57752">
        <ele>1507.112671</ele>
        <time>2013-10-01T20:33:43Z</time>
      </trkpt>
      <trkpt lat="45.24012" lon="5.57774">
        <ele>1502.767334</ele>
        <time>2013-10-01T20:33:49Z</time>
      </trkpt>
      <trkpt lat="45.24026" lon="5.57781">
        <ele>1501.871216</ele>
        <time>2013-10-01T20:33:53Z</time>
      </trkpt>
      <trkpt lat="45.24099" lon="5.57838">
        <ele>1498.054443</ele>
        <time>2013-10-01T20:34:15Z</time>
      </trkpt>
      <trkpt lat="45.24139" lon="5.5789">
        <ele>1495.558105</ele>
        <time>2013-10-01T20:34:29Z</time>
      </trkpt>
      <trkpt lat="45.24172" lon="5.57908">
        <ele>1504.146362</ele>
        <time>2013-10-01T20:34:39Z</time>
      </trkpt>
      <trkpt lat="45.24178" lon="5.5792">
        <ele>1504.602417</ele>
        <time>2013-10-01T20:34:41Z</time>
      </trkpt>
      <trkpt lat="45.24182" lon="5.57947">
        <ele>1504.25647</ele>
        <time>2013-10-01T20:34:47Z</time>
      </trkpt>
      <trkpt lat="45.24174" lon="5.57976">
        <ele>1502.281006</ele>
        <time>2013-10-01T20:34:52Z</time>
      </trkpt>
      <trkpt lat="45.24167" lon="5.58018">
        <ele>1502.541016</ele>
        <time>2013-10-01T20:35:01Z</time>
      </trkpt>
      <trkpt lat="45.24163" lon="5.58028">
        <ele>1501.639404</ele>
        <time>2013-10-01T20:35:03Z</time>
      </trkpt>
      <trkpt lat="45.24159" lon="5.58079">
        <ele>1505.954468</ele>
        <time>2013-10-01T20:35:12Z</time>
      </trkpt>
      <trkpt lat="45.24137" lon="5.58125">
        <ele>1504.772827</ele>
        <time>2013-10-01T20:35:23Z</time>
      </trkpt>
      <trkpt lat="45.24132" lon="5.58159">
        <ele>1505.845581</ele>
        <time>2013-10-01T20:35:29Z</time>
      </trkpt>
      <trkpt lat="45.24118" lon="5.58197">
        <ele>1501.422485</ele>
        <time>2013-10-01T20:35:37Z</time>
      </trkpt>
      <trkpt lat="45.24117" lon="5.58208">
        <ele>1500.897461</ele>
        <time>2013-10-01T20:35:40Z</time>
      </trkpt>
      <trkpt lat="45.24122" lon="5.58262">
        <ele>1503.845093</ele>
        <time>2013-10-01T20:35:50Z</time>
      </trkpt>
      <trkpt lat="45.24117" lon="5.5828">
        <ele>1501.263672</ele>
        <time>2013-10-01T20:35:53Z</time>
      </trkpt>
      <trkpt lat="45.24115" lon="5.58312">
        <ele>1499.796387</ele>
        <time>2013-10-01T20:35:59Z</time>
      </trkpt>
      <trkpt lat="45.24118" lon="5.58336">
        <ele>1499.693237</ele>
        <time>2013-10-01T20:36:04Z</time>
      </trkpt>
      <trkpt lat="45.24135" lon="5.58377">
        <ele>1503.938354</ele>
        <time>2013-10-01T20:36:13Z</time>
      </trkpt>
      <trkpt lat="45.24137" lon="5.58408">
        <ele>1504.937622</ele>
        <time>2013-10-01T20:36:19Z</time>
      </trkpt>
      <trkpt lat="45.24134" lon="5.58453">
        <ele>1505.098755</ele>
        <time>2013-10-01T20:36:27Z</time>
      </trkpt>
      <trkpt lat="45.2411" lon="5.58507">
        <ele>1507.819946</ele>
        <time>2013-10-01T20:36:39Z</time>
      </trkpt>
      <trkpt lat="45.241" lon="5.58516">
        <ele>1509.130615</ele>
        <time>2013-10-01T20:36:42Z</time>
      </trkpt>
      <trkpt lat="45.24073" lon="5.58522">
        <ele>1506.973267</ele>
        <time>2013-10-01T20:36:49Z</time>
      </trkpt>
      <trkpt lat="45.24005" lon="5.58516">
        <ele>1497.300049</ele>
        <time>2013-10-01T20:37:08Z</time>
      </trkpt>
      <trkpt lat="45.23975" lon="5.58528">
        <ele>1495.175049</ele>
        <time>2013-10-01T20:37:16Z</time>
      </trkpt>
      <trkpt lat="45.23944" lon="5.58552">
        <ele>1496.857178</ele>
        <time>2013-10-01T20:37:25Z</time>
      </trkpt>
      <trkpt lat="45.23936" lon="5.58564">
        <ele>1499.608765</ele>
        <time>2013-10-01T20:37:29Z</time>
      </trkpt>
      <trkpt lat="45.23877" lon="5.58614">
        <ele>1513.728149</ele>
        <time>2013-10-01T20:37:47Z</time>
      </trkpt>
      <trkpt lat="45.23838" lon="5.58624">
        <ele>1512.554688</ele>
        <time>2013-10-01T20:37:57Z</time>
      </trkpt>
      <trkpt lat="45.23815" lon="5.58636">
        <ele>1510.289551</ele>
        <time>2013-10-01T20:38:04Z</time>
      </trkpt>
      <trkpt lat="45.2378" lon="5.58671">
        <ele>1511.801147</ele>
        <time>2013-10-01T20:38:15Z</time>
      </trkpt>
      <trkpt lat="45.23775" lon="5.58685">
        <ele>1514.07312</ele>
        <time>2013-10-01T20:38:18Z</time>
      </trkpt>
      <trkpt lat="45.23758" lon="5.58707">
        <ele>1513.67334</ele>
        <time>2013-10-01T20:38:24Z</time>
      </trkpt>
      <trkpt lat="45.23752" lon="5.58736">
        <ele>1516.767212</ele>
        <time>2013-10-01T20:38:30Z</time>
      </trkpt>
      <trkpt lat="45.23756" lon="5.58764">
        <ele>1520.155518</ele>
        <time>2013-10-01T20:38:35Z</time>
      </trkpt>
      <trkpt lat="45.23746" lon="5.58815">
        <ele>1519.253052</ele>
        <time>2013-10-01T20:38:45Z</time>
      </trkpt>
      <trkpt lat="45.23756" lon="5.58872">
        <ele>1534.985718</ele>
        <time>2013-10-01T20:38:56Z</time>
      </trkpt>
      <trkpt lat="45.23745" lon="5.58919">
        <ele>1549.317383</ele>
        <time>2013-10-01T20:39:06Z</time>
      </trkpt>
      <trkpt lat="45.2374" lon="5.58928">
        <ele>1554.163818</ele>
        <time>2013-10-01T20:39:08Z</time>
      </trkpt>
      <trkpt lat="45.23669" lon="5.58998">
        <ele>1550.490356</ele>
        <time>2013-10-01T20:39:31Z</time>
      </trkpt>
      <trkpt lat="45.23632" lon="5.59029">
        <ele>1545.080688</ele>
        <time>2013-10-01T20:39:42Z</time>
      </trkpt>
      <trkpt lat="45.23618" lon="5.59056">
        <ele>1547.053955</ele>
        <time>2013-10-01T20:39:48Z</time>
      </trkpt>
      <trkpt lat="45.2361" lon="5.59066">
        <ele>1545.548462</ele>
        <time>2013-10-01T20:39:51Z</time>
      </trkpt>
      <trkpt lat="45.23577" lon="5.59084">
        <ele>1542.684937</ele>
        <time>2013-10-01T20:40:01Z</time>
      </trkpt>
      <trkpt lat="45.23559" lon="5.59104">
        <ele>1544.970337</ele>
        <time>2013-10-01T20:40:07Z</time>
      </trkpt>
      <trkpt lat="45.23553" lon="5.59116">
        <ele>1546.64502</ele>
        <time>2013-10-01T20:40:10Z</time>
      </trkpt>
      <trkpt lat="45.23555" lon="5.59124">
        <ele>1547.973511</ele>
        <time>2013-10-01T20:40:11Z</time>
      </trkpt>
      <trkpt lat="45.23564" lon="5.59125">
        <ele>1549.427734</ele>
        <time>2013-10-01T20:40:14Z</time>
      </trkpt>
      <trkpt lat="45.23577" lon="5.59115">
        <ele>1550.485229</ele>
        <time>2013-10-01T20:40:18Z</time>
      </trkpt>
      <trkpt lat="45.23604" lon="5.59117">
        <ele>1554.814331</ele>
        <time>2013-10-01T20:40:25Z</time>
      </trkpt>
      <trkpt lat="45.23613" lon="5.59126">
        <ele>1556.446289</ele>
        <time>2013-10-01T20:40:28Z</time>
      </trkpt>
      <trkpt lat="45.2361" lon="5.59149">
        <ele>1557.471558</ele>
        <time>2013-10-01T20:40:32Z</time>
      </trkpt>
      <trkpt lat="45.23589" lon="5.59159">
        <ele>1555.430664</ele>
        <time>2013-10-01T20:40:38Z</time>
      </trkpt>
      <trkpt lat="45.23568" lon="5.59187">
        <ele>1557.845825</ele>
        <time>2013-10-01T20:40:46Z</time>
      </trkpt>
      <trkpt lat="45.23548" lon="5.59199">
        <ele>1559.52063</ele>
        <time>2013-10-01T20:40:52Z</time>
      </trkpt>
      <trkpt lat="45.23547" lon="5.59215">
        <ele>1562.973755</ele>
        <time>2013-10-01T20:40:55Z</time>
      </trkpt>
      <trkpt lat="45.23562" lon="5.59216">
        <ele>1564.449951</ele>
        <time>2013-10-01T20:40:59Z</time>
      </trkpt>
      <trkpt lat="45.23566" lon="5.5923">
        <ele>1568.141479</ele>
        <time>2013-10-01T20:41:02Z</time>
      </trkpt>
      <trkpt lat="45.23562" lon="5.59246">
        <ele>1571.680542</ele>
        <time>2013-10-01T20:41:05Z</time>
      </trkpt>
      <trkpt lat="45.23537" lon="5.59271">
        <ele>1579.75708</ele>
        <time>2013-10-01T20:41:13Z</time>
      </trkpt>
      <trkpt lat="45.23504" lon="5.59268">
        <ele>1578.876587</ele>
        <time>2013-10-01T20:41:22Z</time>
      </trkpt>
      <trkpt lat="45.23494" lon="5.59284">
        <ele>1582.502808</ele>
        <time>2013-10-01T20:41:26Z</time>
      </trkpt>
      <trkpt lat="45.23485" lon="5.5929">
        <ele>1582.817993</ele>
        <time>2013-10-01T20:41:29Z</time>
      </trkpt>
      <trkpt lat="45.23465" lon="5.59285">
        <ele>1578.983521</ele>
        <time>2013-10-01T20:41:34Z</time>
      </trkpt>
      <trkpt lat="45.23435" lon="5.59286">
        <ele>1577.827881</ele>
        <time>2013-10-01T20:41:42Z</time>
      </trkpt>
      <trkpt lat="45.23424" lon="5.59293">
        <ele>1578.260132</ele>
        <time>2013-10-01T20:41:45Z</time>
      </trkpt>
      <trkpt lat="45.23411" lon="5.59324">
        <ele>1581.272461</ele>
        <time>2013-10-01T20:41:52Z</time>
      </trkpt>
      <trkpt lat="45.23418" lon="5.59344">
        <ele>1583.911621</ele>
        <time>2013-10-01T20:41:56Z</time>
      </trkpt>
      <trkpt lat="45.23423" lon="5.59343">
        <ele>1584.259033</ele>
        <time>2013-10-01T20:41:58Z</time>
      </trkpt>
      <trkpt lat="45.23445" lon="5.5936">
        <ele>1588.067261</ele>
        <time>2013-10-01T20:42:04Z</time>
      </trkpt>
      <trkpt lat="45.23459" lon="5.59364">
        <ele>1589.344971</ele>
        <time>2013-10-01T20:42:08Z</time>
      </trkpt>
      <trkpt lat="45.23523" lon="5.59411">
        <ele>1592.916748</ele>
        <time>2013-10-01T20:42:27Z</time>
      </trkpt>
      <trkpt lat="45.23557" lon="5.59473">
        <ele>1571.10083</ele>
        <time>2013-10-01T20:42:42Z</time>
      </trkpt>
      <trkpt lat="45.2355" lon="5.59482">
        <ele>1585.271606</ele>
        <time>2013-10-01T20:42:45Z</time>
      </trkpt>
      <trkpt lat="45.23503" lon="5.59495">
        <ele>1601.133789</ele>
        <time>2013-10-01T20:42:57Z</time>
      </trkpt>
      <trkpt lat="45.23469" lon="5.59476">
        <ele>1599.193726</ele>
        <time>2013-10-01T20:43:07Z</time>
      </trkpt>
      <trkpt lat="45.23456" lon="5.59474">
        <ele>1599.229614</ele>
        <time>2013-10-01T20:43:11Z</time>
      </trkpt>
      <trkpt lat="45.23432" lon="5.59501">
        <ele>1604.508179</ele>
        <time>2013-10-01T20:43:19Z</time>
      </trkpt>
      <trkpt lat="45.2341" lon="5.59533">
        <ele>1610.500366</ele>
        <time>2013-10-01T20:43:27Z</time>
      </trkpt>
      <trkpt lat="45.23397" lon="5.5954">
        <ele>1612.158569</ele>
        <time>2013-10-01T20:43:31Z</time>
      </trkpt>
      <trkpt lat="45.23365" lon="5.59536">
        <ele>1613.452759</ele>
        <time>2013-10-01T20:43:39Z</time>
      </trkpt>
      <trkpt lat="45.2334" lon="5.59549">
        <ele>1615.289063</ele>
        <time>2013-10-01T20:43:46Z</time>
      </trkpt>
      <trkpt lat="45.23282" lon="5.59506">
        <ele>1612.148315</ele>
        <time>2013-10-01T20:44:04Z</time>
      </trkpt>
      <trkpt lat="45.23265" lon="5.59503">
        <ele>1612.076782</ele>
        <time>2013-10-01T20:44:08Z</time>
      </trkpt>
      <trkpt lat="45.2325" lon="5.59521">
        <ele>1612.135132</ele>
        <time>2013-10-01T20:44:14Z</time>
      </trkpt>
      <trkpt lat="45.23234" lon="5.59524">
        <ele>1611.436768</ele>
        <time>2013-10-01T20:44:18Z</time>
      </trkpt>
      <trkpt lat="45.23225" lon="5.59531">
        <ele>1610.979248</ele>
        <time>2013-10-01T20:44:21Z</time>
      </trkpt>
      <trkpt lat="45.23208" lon="5.59556">
        <ele>1609.258789</ele>
        <time>2013-10-01T20:44:27Z</time>
      </trkpt>
      <trkpt lat="45.232" lon="5.59558">
        <ele>1608.555054</ele>
        <time>2013-10-01T20:44:29Z</time>
      </trkpt>
      <trkpt lat="45.23196" lon="5.59547">
        <ele>1608.564575</ele>
        <time>2013-10-01T20:44:31Z</time>
      </trkpt>
      <trkpt lat="45.23164" lon="5.59533">
        <ele>1607.675781</ele>
        <time>2013-10-01T20:44:40Z</time>
      </trkpt>
      <trkpt lat="45.23154" lon="5.59524">
        <ele>1607.537598</ele>
        <time>2013-10-01T20:44:44Z</time>
      </trkpt>
      <trkpt lat="45.23133" lon="5.59472">
        <ele>1606.813477</ele>
        <time>2013-10-01T20:44:55Z</time>
      </trkpt>
      <trkpt lat="45.23107" lon="5.5943">
        <ele>1604.044067</ele>
        <time>2013-10-01T20:45:05Z</time>
      </trkpt>
      <trkpt lat="45.23073" lon="5.59411">
        <ele>1604.002075</ele>
        <time>2013-10-01T20:45:15Z</time>
      </trkpt>
      <trkpt lat="45.23045" lon="5.59409">
        <ele>1604.974487</ele>
        <time>2013-10-01T20:45:22Z</time>
      </trkpt>
      <trkpt lat="45.23037" lon="5.59403">
        <ele>1605.469971</ele>
        <time>2013-10-01T20:45:25Z</time>
      </trkpt>
      <trkpt lat="45.23024" lon="5.59385">
        <ele>1606.00769</ele>
        <time>2013-10-01T20:45:30Z</time>
      </trkpt>
      <trkpt lat="45.23004" lon="5.5938">
        <ele>1607.022583</ele>
        <time>2013-10-01T20:45:35Z</time>
      </trkpt>
      <trkpt lat="45.22992" lon="5.59362">
        <ele>1607.440308</ele>
        <time>2013-10-01T20:45:40Z</time>
      </trkpt>
      <trkpt lat="45.22986" lon="5.59359">
        <ele>1607.670898</ele>
        <time>2013-10-01T20:45:42Z</time>
      </trkpt>
      <trkpt lat="45.22967" lon="5.59363">
        <ele>1608.283447</ele>
        <time>2013-10-01T20:45:47Z</time>
      </trkpt>
      <trkpt lat="45.22947" lon="5.59352">
        <ele>1608.869141</ele>
        <time>2013-10-01T20:45:52Z</time>
      </trkpt>
      <trkpt lat="45.22939" lon="5.59353">
        <ele>1608.952026</ele>
        <time>2013-10-01T20:45:55Z</time>
      </trkpt>
      <trkpt lat="45.22884" lon="5.59384">
        <ele>1608.20752</ele>
        <time>2013-10-01T20:46:10Z</time>
      </trkpt>
      <trkpt lat="45.2285" lon="5.59384">
        <ele>1608.162476</ele>
        <time>2013-10-01T20:46:20Z</time>
      </trkpt>
      <trkpt lat="45.22825" lon="5.59369">
        <ele>1608.597046</ele>
        <time>2013-10-01T20:46:27Z</time>
      </trkpt>
      <trkpt lat="45.22792" lon="5.5937">
        <ele>1608.853149</ele>
        <time>2013-10-01T20:46:36Z</time>
      </trkpt>
      <trkpt lat="45.22735" lon="5.59394">
        <ele>1608.068726</ele>
        <time>2013-10-01T20:46:52Z</time>
      </trkpt>
      <trkpt lat="45.22724" lon="5.59403">
        <ele>1607.581421</ele>
        <time>2013-10-01T20:46:55Z</time>
      </trkpt>
      <trkpt lat="45.22703" lon="5.59397">
        <ele>1608.535156</ele>
        <time>2013-10-01T20:47:01Z</time>
      </trkpt>
      <trkpt lat="45.22694" lon="5.59386">
        <ele>1609.515625</ele>
        <time>2013-10-01T20:47:04Z</time>
      </trkpt>
      <trkpt lat="45.22679" lon="5.59379">
        <ele>1610.211792</ele>
        <time>2013-10-01T20:47:08Z</time>
      </trkpt>
      <trkpt lat="45.22669" lon="5.59381">
        <ele>1610.321045</ele>
        <time>2013-10-01T20:47:11Z</time>
      </trkpt>
      <trkpt lat="45.22654" lon="5.59393">
        <ele>1610.006958</ele>
        <time>2013-10-01T20:47:15Z</time>
      </trkpt>
      <trkpt lat="45.22574" lon="5.59385">
        <ele>1611.494873</ele>
        <time>2013-10-01T20:47:37Z</time>
      </trkpt>
      <trkpt lat="45.22543" lon="5.59392">
        <ele>1611.086426</ele>
        <time>2013-10-01T20:47:45Z</time>
      </trkpt>
      <trkpt lat="45.2249" lon="5.59382">
        <ele>1612.058105</ele>
        <time>2013-10-01T20:47:59Z</time>
      </trkpt>
      <trkpt lat="45.22453" lon="5.59383">
        <ele>1612.249268</ele>
        <time>2013-10-01T20:48:09Z</time>
      </trkpt>
      <trkpt lat="45.22392" lon="5.59367">
        <ele>1613.449951</ele>
        <time>2013-10-01T20:48:26Z</time>
      </trkpt>
      <trkpt lat="45.22347" lon="5.59379">
        <ele>1614.359985</ele>
        <time>2013-10-01T20:48:38Z</time>
      </trkpt>
      <trkpt lat="45.2229" lon="5.59354">
        <ele>1616.614502</ele>
        <time>2013-10-01T20:48:54Z</time>
      </trkpt>
      <trkpt lat="45.22258" lon="5.59325">
        <ele>1616.400024</ele>
        <time>2013-10-01T20:49:04Z</time>
      </trkpt>
      <trkpt lat="45.2223" lon="5.59282">
        <ele>1614.020142</ele>
        <time>2013-10-01T20:49:15Z</time>
      </trkpt>
      <trkpt lat="45.22191" lon="5.59234">
        <ele>1606.991821</ele>
        <time>2013-10-01T20:49:29Z</time>
      </trkpt>
      <trkpt lat="45.2217" lon="5.59225">
        <ele>1602.251587</ele>
        <time>2013-10-01T20:49:35Z</time>
      </trkpt>
      <trkpt lat="45.2211" lon="5.59238">
        <ele>1601.866821</ele>
        <time>2013-10-01T20:49:51Z</time>
      </trkpt>
      <trkpt lat="45.22086" lon="5.59238">
        <ele>1601.513794</ele>
        <time>2013-10-01T20:49:57Z</time>
      </trkpt>
      <trkpt lat="45.22056" lon="5.59231">
        <ele>1599.52356</ele>
        <time>2013-10-01T20:50:05Z</time>
      </trkpt>
      <trkpt lat="45.21964" lon="5.59253">
        <ele>1596.866089</ele>
        <time>2013-10-01T20:50:30Z</time>
      </trkpt>
      <trkpt lat="45.21933" lon="5.59251">
        <ele>1595.886963</ele>
        <time>2013-10-01T20:50:38Z</time>
      </trkpt>
      <trkpt lat="45.21903" lon="5.59262">
        <ele>1595.69873</ele>
        <time>2013-10-01T20:50:47Z</time>
      </trkpt>
      <trkpt lat="45.21827" lon="5.59265">
        <ele>1589.838501</ele>
        <time>2013-10-01T20:51:07Z</time>
      </trkpt>
      <trkpt lat="45.21813" lon="5.59272">
        <ele>1588.19751</ele>
        <time>2013-10-01T20:51:11Z</time>
      </trkpt>
      <trkpt lat="45.21803" lon="5.59283">
        <ele>1586.943726</ele>
        <time>2013-10-01T20:51:14Z</time>
      </trkpt>
      <trkpt lat="45.2178" lon="5.5935">
        <ele>1584.13855</ele>
        <time>2013-10-01T20:51:28Z</time>
      </trkpt>
      <trkpt lat="45.21745" lon="5.59413">
        <ele>1578.612793</ele>
        <time>2013-10-01T20:51:43Z</time>
      </trkpt>
      <trkpt lat="45.21733" lon="5.59427">
        <ele>1578.532715</ele>
        <time>2013-10-01T20:51:47Z</time>
      </trkpt>
      <trkpt lat="45.21719" lon="5.59431">
        <ele>1579.867798</ele>
        <time>2013-10-01T20:51:51Z</time>
      </trkpt>
      <trkpt lat="45.21665" lon="5.59398">
        <ele>1594.52124</ele>
        <time>2013-10-01T20:52:07Z</time>
      </trkpt>
      <trkpt lat="45.21664" lon="5.59358">
        <ele>1596.591553</ele>
        <time>2013-10-01T20:52:14Z</time>
      </trkpt>
      <trkpt lat="45.21655" lon="5.59345">
        <ele>1600.321289</ele>
        <time>2013-10-01T20:52:18Z</time>
      </trkpt>
      <trkpt lat="45.21657" lon="5.59306">
        <ele>1599.686157</ele>
        <time>2013-10-01T20:52:25Z</time>
      </trkpt>
      <trkpt lat="45.21654" lon="5.5929">
        <ele>1599.810913</ele>
        <time>2013-10-01T20:52:28Z</time>
      </trkpt>
      <trkpt lat="45.21643" lon="5.5927">
        <ele>1603.679321</ele>
        <time>2013-10-01T20:52:33Z</time>
      </trkpt>
      <trkpt lat="45.21634" lon="5.59232">
        <ele>1603.616699</ele>
        <time>2013-10-01T20:52:41Z</time>
      </trkpt>
      <trkpt lat="45.21585" lon="5.59166">
        <ele>1604.386719</ele>
        <time>2013-10-01T20:52:59Z</time>
      </trkpt>
      <trkpt lat="45.2156" lon="5.59159">
        <ele>1607.10498</ele>
        <time>2013-10-01T20:53:06Z</time>
      </trkpt>
      <trkpt lat="45.21547" lon="5.59165">
        <ele>1608.435059</ele>
        <time>2013-10-01T20:53:09Z</time>
      </trkpt>
      <trkpt lat="45.21514" lon="5.59156">
        <ele>1611.342529</ele>
        <time>2013-10-01T20:53:18Z</time>
      </trkpt>
      <trkpt lat="45.21504" lon="5.59161">
        <ele>1612.492432</ele>
        <time>2013-10-01T20:53:21Z</time>
      </trkpt>
      <trkpt lat="45.21506" lon="5.59165">
        <ele>1612.442627</ele>
        <time>2013-10-01T20:53:22Z</time>
      </trkpt>
      <trkpt lat="45.21499" lon="5.59167">
        <ele>1613.269897</ele>
        <time>2013-10-01T20:53:24Z</time>
      </trkpt>
      <trkpt lat="45.21445" lon="5.59125">
        <ele>1617.473755</ele>
        <time>2013-10-01T20:53:40Z</time>
      </trkpt>
      <trkpt lat="45.21434" lon="5.59093">
        <ele>1618.797363</ele>
        <time>2013-10-01T20:53:47Z</time>
      </trkpt>
      <trkpt lat="45.21423" lon="5.5908">
        <ele>1620.308594</ele>
        <time>2013-10-01T20:53:51Z</time>
      </trkpt>
      <trkpt lat="45.21398" lon="5.5907">
        <ele>1623.427002</ele>
        <time>2013-10-01T20:53:58Z</time>
      </trkpt>
      <trkpt lat="45.21318" lon="5.58996">
        <ele>1632.934814</ele>
        <time>2013-10-01T20:54:23Z</time>
      </trkpt>
      <trkpt lat="45.21306" lon="5.58997">
        <ele>1633.174683</ele>
        <time>2013-10-01T20:54:26Z</time>
      </trkpt>
      <trkpt lat="45.21218" lon="5.59033">
        <ele>1633.480347</ele>
        <time>2013-10-01T20:54:51Z</time>
      </trkpt>
      <trkpt lat="45.2117" lon="5.59027">
        <ele>1634.188843</ele>
        <time>2013-10-01T20:55:03Z</time>
      </trkpt>
      <trkpt lat="45.21138" lon="5.59012">
        <ele>1632.791382</ele>
        <time>2013-10-01T20:55:12Z</time>
      </trkpt>
      <trkpt lat="45.21121" lon="5.58989">
        <ele>1631.65625</ele>
        <time>2013-10-01T20:55:19Z</time>
      </trkpt>
      <trkpt lat="45.2111" lon="5.58957">
        <ele>1629.348022</ele>
        <time>2013-10-01T20:55:26Z</time>
      </trkpt>
      <trkpt lat="45.21102" lon="5.58953">
        <ele>1626.695801</ele>
        <time>2013-10-01T20:55:28Z</time>
      </trkpt>
      <trkpt lat="45.21088" lon="5.58965">
        <ele>1621.587402</ele>
        <time>2013-10-01T20:55:32Z</time>
      </trkpt>
      <trkpt lat="45.21062" lon="5.59026">
        <ele>1620.012817</ele>
        <time>2013-10-01T20:55:46Z</time>
      </trkpt>
      <trkpt lat="45.21047" lon="5.5905">
        <ele>1618.562622</ele>
        <time>2013-10-01T20:55:52Z</time>
      </trkpt>
      <trkpt lat="45.2102" lon="5.59062">
        <ele>1617.825928</ele>
        <time>2013-10-01T20:55:59Z</time>
      </trkpt>
      <trkpt lat="45.21003" lon="5.59093">
        <ele>1619.367554</ele>
        <time>2013-10-01T20:56:06Z</time>
      </trkpt>
      <trkpt lat="45.20995" lon="5.59124">
        <ele>1616.64624</ele>
        <time>2013-10-01T20:56:13Z</time>
      </trkpt>
      <trkpt lat="45.20996" lon="5.59169">
        <ele>1612.664429</ele>
        <time>2013-10-01T20:56:21Z</time>
      </trkpt>
      <trkpt lat="45.20988" lon="5.5918">
        <ele>1611.815552</ele>
        <time>2013-10-01T20:56:24Z</time>
      </trkpt>
      <trkpt lat="45.20943" lon="5.59184">
        <ele>1612.095337</ele>
        <time>2013-10-01T20:56:36Z</time>
      </trkpt>
      <trkpt lat="45.2093" lon="5.59176">
        <ele>1612.932495</ele>
        <time>2013-10-01T20:56:40Z</time>
      </trkpt>
      <trkpt lat="45.20885" lon="5.59124">
        <ele>1617.768799</ele>
        <time>2013-10-01T20:56:55Z</time>
      </trkpt>
      <trkpt lat="45.20835" lon="5.59112">
        <ele>1618.662598</ele>
        <time>2013-10-01T20:57:09Z</time>
      </trkpt>
      <trkpt lat="45.20815" lon="5.59114">
        <ele>1618.680054</ele>
        <time>2013-10-01T20:57:14Z</time>
      </trkpt>
      <trkpt lat="45.20725" lon="5.59168">
        <ele>1616.827515</ele>
        <time>2013-10-01T20:57:40Z</time>
      </trkpt>
      <trkpt lat="45.20696" lon="5.59221">
        <ele>1613.991699</ele>
        <time>2013-10-01T20:57:53Z</time>
      </trkpt>
      <trkpt lat="45.20687" lon="5.59223">
        <ele>1614.329468</ele>
        <time>2013-10-01T20:57:55Z</time>
      </trkpt>
      <trkpt lat="45.20636" lon="5.59213">
        <ele>1617.532959</ele>
        <time>2013-10-01T20:58:09Z</time>
      </trkpt>
      <trkpt lat="45.20612" lon="5.59214">
        <ele>1618.571289</ele>
        <time>2013-10-01T20:58:15Z</time>
      </trkpt>
      <trkpt lat="45.20464" lon="5.59314">
        <ele>1621.320068</ele>
        <time>2013-10-01T20:58:59Z</time>
      </trkpt>
      <trkpt lat="45.20443" lon="5.59307">
        <ele>1622.772705</ele>
        <time>2013-10-01T20:59:05Z</time>
      </trkpt>
      <trkpt lat="45.20404" lon="5.59308">
        <ele>1622.99585</ele>
        <time>2013-10-01T20:59:15Z</time>
      </trkpt>
      <trkpt lat="45.20374" lon="5.59302">
        <ele>1623.043457</ele>
        <time>2013-10-01T20:59:23Z</time>
      </trkpt>
      <trkpt lat="45.20323" lon="5.59282">
        <ele>1623.972534</ele>
        <time>2013-10-01T20:59:37Z</time>
      </trkpt>
      <trkpt lat="45.2028" lon="5.59275">
        <ele>1625.005005</ele>
        <time>2013-10-01T20:59:49Z</time>
      </trkpt>
      <trkpt lat="45.20195" lon="5.59242">
        <ele>1627.366211</ele>
        <time>2013-10-01T21:00:12Z</time>
      </trkpt>
      <trkpt lat="45.20093" lon="5.5922">
        <ele>1629.775024</ele>
        <time>2013-10-01T21:00:40Z</time>
      </trkpt>
      <trkpt lat="45.20072" lon="5.5922">
        <ele>1630.477173</ele>
        <time>2013-10-01T21:00:46Z</time>
      </trkpt>
      <trkpt lat="45.19972" lon="5.5919">
        <ele>1633.484985</ele>
        <time>2013-10-01T21:01:13Z</time>
      </trkpt>
      <trkpt lat="45.19868" lon="5.5918">
        <ele>1634.899292</ele>
        <time>2013-10-01T21:01:41Z</time>
      </trkpt>
      <trkpt lat="45.19836" lon="5.59191">
        <ele>1635.517456</ele>
        <time>2013-10-01T21:01:49Z</time>
      </trkpt>
      <trkpt lat="45.19783" lon="5.59174">
        <ele>1637.454224</ele>
        <time>2013-10-01T21:02:04Z</time>
      </trkpt>
      <trkpt lat="45.1979" lon="5.59182">
        <ele>1637.001099</ele>
        <time>2013-10-01T21:02:06Z</time>
      </trkpt>
      <trkpt lat="45.19791" lon="5.5919">
        <ele>1636.838379</ele>
        <time>2013-10-01T21:02:08Z</time>
      </trkpt>
      <trkpt lat="45.19772" lon="5.59197">
        <ele>1637.276245</ele>
        <time>2013-10-01T21:02:13Z</time>
      </trkpt>
      <trkpt lat="45.19728" lon="5.59187">
        <ele>1640.337524</ele>
        <time>2013-10-01T21:02:25Z</time>
      </trkpt>
      <trkpt lat="45.19671" lon="5.59158">
        <ele>1642.668701</ele>
        <time>2013-10-01T21:02:41Z</time>
      </trkpt>
      <trkpt lat="45.19653" lon="5.59158">
        <ele>1643.040039</ele>
        <time>2013-10-01T21:02:45Z</time>
      </trkpt>
      <trkpt lat="45.19592" lon="5.59171">
        <ele>1644.025024</ele>
        <time>2013-10-01T21:03:02Z</time>
      </trkpt>
      <trkpt lat="45.19565" lon="5.59187">
        <ele>1645.190063</ele>
        <time>2013-10-01T21:03:10Z</time>
      </trkpt>
      <trkpt lat="45.19531" lon="5.59192">
        <ele>1647.592651</ele>
        <time>2013-10-01T21:03:19Z</time>
      </trkpt>
      <trkpt lat="45.19444" lon="5.59223">
        <ele>1646.411377</ele>
        <time>2013-10-01T21:03:43Z</time>
      </trkpt>
      <trkpt lat="45.19424" lon="5.59243">
        <ele>1645.866821</ele>
        <time>2013-10-01T21:03:49Z</time>
      </trkpt>
      <trkpt lat="45.19369" lon="5.59249">
        <ele>1645.057861</ele>
        <time>2013-10-01T21:04:04Z</time>
      </trkpt>
      <trkpt lat="45.19223" lon="5.59211">
        <ele>1640.420288</ele>
        <time>2013-10-01T21:04:43Z</time>
      </trkpt>
      <trkpt lat="45.19211" lon="5.59205">
        <ele>1641.378906</ele>
        <time>2013-10-01T21:04:47Z</time>
      </trkpt>
      <trkpt lat="45.19193" lon="5.59203">
        <ele>1642.961182</ele>
        <time>2013-10-01T21:04:52Z</time>
      </trkpt>
      <trkpt lat="45.1917" lon="5.59192">
        <ele>1646.59082</ele>
        <time>2013-10-01T21:04:58Z</time>
      </trkpt>
      <trkpt lat="45.19129" lon="5.59186">
        <ele>1652.295898</ele>
        <time>2013-10-01T21:05:09Z</time>
      </trkpt>
      <trkpt lat="45.19101" lon="5.59165">
        <ele>1662.347656</ele>
        <time>2013-10-01T21:05:18Z</time>
      </trkpt>
      <trkpt lat="45.19076" lon="5.59163">
        <ele>1666.828735</ele>
        <time>2013-10-01T21:05:24Z</time>
      </trkpt>
      <trkpt lat="45.19033" lon="5.59139">
        <ele>1675.311523</ele>
        <time>2013-10-01T21:05:37Z</time>
      </trkpt>
      <trkpt lat="45.19022" lon="5.59141">
        <ele>1675.776855</ele>
        <time>2013-10-01T21:05:40Z</time>
      </trkpt>
      <trkpt lat="45.19013" lon="5.59137">
        <ele>1677.240479</ele>
        <time>2013-10-01T21:05:42Z</time>
      </trkpt>
      <trkpt lat="45.18978" lon="5.5914">
        <ele>1677.599854</ele>
        <time>2013-10-01T21:05:52Z</time>
      </trkpt>
      <trkpt lat="45.18972" lon="5.59135">
        <ele>1679.186768</ele>
        <time>2013-10-01T21:05:54Z</time>
      </trkpt>
      <trkpt lat="45.18911" lon="5.59139">
        <ele>1686.264893</ele>
        <time>2013-10-01T21:06:10Z</time>
      </trkpt>
      <trkpt lat="45.18902" lon="5.59145">
        <ele>1686.640869</ele>
        <time>2013-10-01T21:06:13Z</time>
      </trkpt>
      <trkpt lat="45.18861" lon="5.5914">
        <ele>1693.942749</ele>
        <time>2013-10-01T21:06:23Z</time>
      </trkpt>
      <trkpt lat="45.18854" lon="5.59135">
        <ele>1695.309937</ele>
        <time>2013-10-01T21:06:25Z</time>
      </trkpt>
      <trkpt lat="45.18807" lon="5.59152">
        <ele>1700.732056</ele>
        <time>2013-10-01T21:06:38Z</time>
      </trkpt>
      <trkpt lat="45.18786" lon="5.59181">
        <ele>1693.21875</ele>
        <time>2013-10-01T21:06:46Z</time>
      </trkpt>
      <trkpt lat="45.1877" lon="5.5919">
        <ele>1693.990845</ele>
        <time>2013-10-01T21:06:51Z</time>
      </trkpt>
      <trkpt lat="45.1875" lon="5.59195">
        <ele>1697.523071</ele>
        <time>2013-10-01T21:06:56Z</time>
      </trkpt>
      <trkpt lat="45.18728" lon="5.59217">
        <ele>1697.988281</ele>
        <time>2013-10-01T21:07:03Z</time>
      </trkpt>
      <trkpt lat="45.18721" lon="5.59216">
        <ele>1699.450928</ele>
        <time>2013-10-01T21:07:05Z</time>
      </trkpt>
      <trkpt lat="45.1868" lon="5.59263">
        <ele>1695.784546</ele>
        <time>2013-10-01T21:07:19Z</time>
      </trkpt>
      <trkpt lat="45.18657" lon="5.59255">
        <ele>1694.036865</ele>
        <time>2013-10-01T21:07:25Z</time>
      </trkpt>
      <trkpt lat="45.18637" lon="5.5924">
        <ele>1693.889648</ele>
        <time>2013-10-01T21:07:32Z</time>
      </trkpt>
      <trkpt lat="45.18589" lon="5.5917">
        <ele>1697.234497</ele>
        <time>2013-10-01T21:07:50Z</time>
      </trkpt>
      <trkpt lat="45.18574" lon="5.59164">
        <ele>1692.648071</ele>
        <time>2013-10-01T21:07:54Z</time>
      </trkpt>
      <trkpt lat="45.18563" lon="5.59147">
        <ele>1696.2854</ele>
        <time>2013-10-01T21:07:58Z</time>
      </trkpt>
      <trkpt lat="45.18563" lon="5.59127">
        <ele>1702.014038</ele>
        <time>2013-10-01T21:08:02Z</time>
      </trkpt>
      <trkpt lat="45.1856" lon="5.59119">
        <ele>1702.506958</ele>
        <time>2013-10-01T21:08:04Z</time>
      </trkpt>
      <trkpt lat="45.18545" lon="5.59109">
        <ele>1698.357056</ele>
        <time>2013-10-01T21:08:08Z</time>
      </trkpt>
      <trkpt lat="45.18499" lon="5.59048">
        <ele>1694.046387</ele>
        <time>2013-10-01T21:08:25Z</time>
      </trkpt>
      <trkpt lat="45.18481" lon="5.59032">
        <ele>1688.783447</ele>
        <time>2013-10-01T21:08:31Z</time>
      </trkpt>
      <trkpt lat="45.18474" lon="5.58999">
        <ele>1693.821411</ele>
        <time>2013-10-01T21:08:37Z</time>
      </trkpt>
      <trkpt lat="45.18462" lon="5.58981">
        <ele>1688.360107</ele>
        <time>2013-10-01T21:08:42Z</time>
      </trkpt>
      <trkpt lat="45.18448" lon="5.58974">
        <ele>1682.357056</ele>
        <time>2013-10-01T21:08:46Z</time>
      </trkpt>
      <trkpt lat="45.18444" lon="5.58965">
        <ele>1682.193237</ele>
        <time>2013-10-01T21:08:48Z</time>
      </trkpt>
      <trkpt lat="45.18389" lon="5.58905">
        <ele>1677.267456</ele>
        <time>2013-10-01T21:09:06Z</time>
      </trkpt>
      <trkpt lat="45.18357" lon="5.5885">
        <ele>1676.376343</ele>
        <time>2013-10-01T21:09:20Z</time>
      </trkpt>
      <trkpt lat="45.18317" lon="5.58807">
        <ele>1669.753662</ele>
        <time>2013-10-01T21:09:33Z</time>
      </trkpt>
      <trkpt lat="45.18304" lon="5.58801">
        <ele>1664.984009</ele>
        <time>2013-10-01T21:09:37Z</time>
      </trkpt>
      <trkpt lat="45.18307" lon="5.58809">
        <ele>1664.540649</ele>
        <time>2013-10-01T21:09:39Z</time>
      </trkpt>
      <trkpt lat="45.18304" lon="5.58811">
        <ele>1662.136963</ele>
        <time>2013-10-01T21:09:39Z</time>
      </trkpt>
      <trkpt lat="45.18259" lon="5.58792">
        <ele>1653.846558</ele>
        <time>2013-10-01T21:09:52Z</time>
      </trkpt>
      <trkpt lat="45.18252" lon="5.58785">
        <ele>1653.653442</ele>
        <time>2013-10-01T21:09:54Z</time>
      </trkpt>
      <trkpt lat="45.18246" lon="5.58768">
        <ele>1655.579712</ele>
        <time>2013-10-01T21:09:58Z</time>
      </trkpt>
      <trkpt lat="45.18233" lon="5.58756">
        <ele>1656.123047</ele>
        <time>2013-10-01T21:10:02Z</time>
      </trkpt>
      <trkpt lat="45.18187" lon="5.58732">
        <ele>1655.656738</ele>
        <time>2013-10-01T21:10:15Z</time>
      </trkpt>
      <trkpt lat="45.18138" lon="5.58697">
        <ele>1650.382935</ele>
        <time>2013-10-01T21:10:30Z</time>
      </trkpt>
      <trkpt lat="45.1811" lon="5.58684">
        <ele>1650.027588</ele>
        <time>2013-10-01T21:10:38Z</time>
      </trkpt>
      <trkpt lat="45.17975" lon="5.58596">
        <ele>1647.313599</ele>
        <time>2013-10-01T21:11:17Z</time>
      </trkpt>
      <trkpt lat="45.17943" lon="5.58592">
        <ele>1648.006104</ele>
        <time>2013-10-01T21:11:26Z</time>
      </trkpt>
      <trkpt lat="45.17896" lon="5.58575">
        <ele>1652.675171</ele>
        <time>2013-10-01T21:11:39Z</time>
      </trkpt>
      <trkpt lat="45.17881" lon="5.58578">
        <ele>1655.100952</ele>
        <time>2013-10-01T21:11:43Z</time>
      </trkpt>
      <trkpt lat="45.17864" lon="5.58573">
        <ele>1658.026123</ele>
        <time>2013-10-01T21:11:47Z</time>
      </trkpt>
      <trkpt lat="45.17837" lon="5.58609">
        <ele>1655.406982</ele>
        <time>2013-10-01T21:11:57Z</time>
      </trkpt>
      <trkpt lat="45.17802" lon="5.58621">
        <ele>1660.479492</ele>
        <time>2013-10-01T21:12:07Z</time>
      </trkpt>
      <trkpt lat="45.17774" lon="5.58644">
        <ele>1660.811768</ele>
        <time>2013-10-01T21:12:15Z</time>
      </trkpt>
      <trkpt lat="45.17738" lon="5.58644">
        <ele>1664.700317</ele>
        <time>2013-10-01T21:12:25Z</time>
      </trkpt>
      <trkpt lat="45.17707" lon="5.58655">
        <ele>1662.624023</ele>
        <time>2013-10-01T21:12:34Z</time>
      </trkpt>
      <trkpt lat="45.17689" lon="5.58656">
        <ele>1663.162231</ele>
        <time>2013-10-01T21:12:38Z</time>
      </trkpt>
      <trkpt lat="45.17636" lon="5.58639">
        <ele>1674.224121</ele>
        <time>2013-10-01T21:12:53Z</time>
      </trkpt>
      <trkpt lat="45.17591" lon="5.58603">
        <ele>1676.314575</ele>
        <time>2013-10-01T21:13:07Z</time>
      </trkpt>
      <trkpt lat="45.17527" lon="5.58579">
        <ele>1676.817505</ele>
        <time>2013-10-01T21:13:24Z</time>
      </trkpt>
      <trkpt lat="45.175" lon="5.58551">
        <ele>1679.565308</ele>
        <time>2013-10-01T21:13:33Z</time>
      </trkpt>
      <trkpt lat="45.17465" lon="5.58553">
        <ele>1672.93457</ele>
        <time>2013-10-01T21:13:43Z</time>
      </trkpt>
      <trkpt lat="45.17446" lon="5.58549">
        <ele>1668.881348</ele>
        <time>2013-10-01T21:13:48Z</time>
      </trkpt>
      <trkpt lat="45.17419" lon="5.58532">
        <ele>1661.857666</ele>
        <time>2013-10-01T21:13:56Z</time>
      </trkpt>
      <trkpt lat="45.1741" lon="5.58518">
        <ele>1662.810059</ele>
        <time>2013-10-01T21:13:59Z</time>
      </trkpt>
      <trkpt lat="45.1736" lon="5.58477">
        <ele>1660.103638</ele>
        <time>2013-10-01T21:14:15Z</time>
      </trkpt>
      <trkpt lat="45.17349" lon="5.58472">
        <ele>1656.749023</ele>
        <time>2013-10-01T21:14:18Z</time>
      </trkpt>
      <trkpt lat="45.17341" lon="5.58475">
        <ele>1653.208496</ele>
        <time>2013-10-01T21:14:20Z</time>
      </trkpt>
      <trkpt lat="45.17331" lon="5.58471">
        <ele>1650.071533</ele>
        <time>2013-10-01T21:14:23Z</time>
      </trkpt>
      <trkpt lat="45.17327" lon="5.58463">
        <ele>1650.014404</ele>
        <time>2013-10-01T21:14:24Z</time>
      </trkpt>
      <trkpt lat="45.17316" lon="5.58458">
        <ele>1647.129517</ele>
        <time>2013-10-01T21:14:28Z</time>
      </trkpt>
      <trkpt lat="45.17286" lon="5.58405">
        <ele>1646.923706</ele>
        <time>2013-10-01T21:14:40Z</time>
      </trkpt>
      <trkpt lat="45.1725" lon="5.58401">
        <ele>1640.109619</ele>
        <time>2013-10-01T21:14:50Z</time>
      </trkpt>
      <trkpt lat="45.17229" lon="5.5839">
        <ele>1637.581055</ele>
        <time>2013-10-01T21:14:56Z</time>
      </trkpt>
      <trkpt lat="45.17198" lon="5.58393">
        <ele>1631.023682</ele>
        <time>2013-10-01T21:15:04Z</time>
      </trkpt>
      <trkpt lat="45.17189" lon="5.58399">
        <ele>1628.556885</ele>
        <time>2013-10-01T21:15:07Z</time>
      </trkpt>
      <trkpt lat="45.17166" lon="5.58399">
        <ele>1624.151245</ele>
        <time>2013-10-01T21:15:13Z</time>
      </trkpt>
      <trkpt lat="45.17147" lon="5.58386">
        <ele>1622.239502</ele>
        <time>2013-10-01T21:15:19Z</time>
      </trkpt>
      <trkpt lat="45.17089" lon="5.58365">
        <ele>1630.19873</ele>
        <time>2013-10-01T21:15:35Z</time>
      </trkpt>
      <trkpt lat="45.17039" lon="5.58354">
        <ele>1645.336304</ele>
        <time>2013-10-01T21:15:48Z</time>
      </trkpt>
      <trkpt lat="45.17023" lon="5.58358">
        <ele>1647.465576</ele>
        <time>2013-10-01T21:15:52Z</time>
      </trkpt>
      <trkpt lat="45.16995" lon="5.58375">
        <ele>1648.403564</ele>
        <time>2013-10-01T21:16:01Z</time>
      </trkpt>
      <trkpt lat="45.16997" lon="5.58392">
        <ele>1643.701172</ele>
        <time>2013-10-01T21:16:04Z</time>
      </trkpt>
      <trkpt lat="45.16985" lon="5.58379">
        <ele>1649.178711</ele>
        <time>2013-10-01T21:16:08Z</time>
      </trkpt>
      <trkpt lat="45.16829" lon="5.58333">
        <ele>1648.748169</ele>
        <time>2013-10-01T21:16:50Z</time>
      </trkpt>
      <trkpt lat="45.16799" lon="5.58336">
        <ele>1644.768799</ele>
        <time>2013-10-01T21:16:58Z</time>
      </trkpt>
      <trkpt lat="45.1675" lon="5.58315">
        <ele>1640.786255</ele>
        <time>2013-10-01T21:17:12Z</time>
      </trkpt>
      <trkpt lat="45.16716" lon="5.58316">
        <ele>1641.021118</ele>
        <time>2013-10-01T21:17:21Z</time>
      </trkpt>
      <trkpt lat="45.16665" lon="5.58303">
        <ele>1644.807373</ele>
        <time>2013-10-01T21:17:35Z</time>
      </trkpt>
      <trkpt lat="45.16654" lon="5.58297">
        <ele>1646.828613</ele>
        <time>2013-10-01T21:17:38Z</time>
      </trkpt>
      <trkpt lat="45.16637" lon="5.58297">
        <ele>1647.845703</ele>
        <time>2013-10-01T21:17:43Z</time>
      </trkpt>
      <trkpt lat="45.16569" lon="5.58277">
        <ele>1650.318237</ele>
        <time>2013-10-01T21:18:01Z</time>
      </trkpt>
      <trkpt lat="45.16447" lon="5.58221">
        <ele>1639.869995</ele>
        <time>2013-10-01T21:18:36Z</time>
      </trkpt>
      <trkpt lat="45.16382" lon="5.58142">
        <ele>1641.906372</ele>
        <time>2013-10-01T21:18:58Z</time>
      </trkpt>
      <trkpt lat="45.16375" lon="5.58115">
        <ele>1645.438965</ele>
        <time>2013-10-01T21:19:04Z</time>
      </trkpt>
      <trkpt lat="45.1635" lon="5.58093">
        <ele>1644.612183</ele>
        <time>2013-10-01T21:19:12Z</time>
      </trkpt>
      <trkpt lat="45.16307" lon="5.58076">
        <ele>1644.816895</ele>
        <time>2013-10-01T21:19:23Z</time>
      </trkpt>
      <trkpt lat="45.16277" lon="5.58075">
        <ele>1643.611572</ele>
        <time>2013-10-01T21:19:31Z</time>
      </trkpt>
      <trkpt lat="45.16175" lon="5.5805">
        <ele>1648.914429</ele>
        <time>2013-10-01T21:19:59Z</time>
      </trkpt>
      <trkpt lat="45.1616" lon="5.58038">
        <ele>1650.650146</ele>
        <time>2013-10-01T21:20:04Z</time>
      </trkpt>
      <trkpt lat="45.16137" lon="5.58039">
        <ele>1651.27002</ele>
        <time>2013-10-01T21:20:10Z</time>
      </trkpt>
      <trkpt lat="45.16087" lon="5.5805">
        <ele>1649.295776</ele>
        <time>2013-10-01T21:20:23Z</time>
      </trkpt>
      <trkpt lat="45.15994" lon="5.58026">
        <ele>1645.286133</ele>
        <time>2013-10-01T21:20:48Z</time>
      </trkpt>
      <trkpt lat="45.15922" lon="5.57987">
        <ele>1641.723267</ele>
        <time>2013-10-01T21:21:09Z</time>
      </trkpt>
      <trkpt lat="45.15894" lon="5.57944">
        <ele>1643.267822</ele>
        <time>2013-10-01T21:21:20Z</time>
      </trkpt>
      <trkpt lat="45.15856" lon="5.57913">
        <ele>1643.566528</ele>
        <time>2013-10-01T21:21:31Z</time>
      </trkpt>
      <trkpt lat="45.15841" lon="5.57908">
        <ele>1643.520386</ele>
        <time>2013-10-01T21:21:36Z</time>
      </trkpt>
      <trkpt lat="45.15837" lon="5.57902">
        <ele>1643.613525</ele>
        <time>2013-10-01T21:21:37Z</time>
      </trkpt>
      <trkpt lat="45.15813" lon="5.57895">
        <ele>1643.2677</ele>
        <time>2013-10-01T21:21:44Z</time>
      </trkpt>
      <trkpt lat="45.15759" lon="5.57865">
        <ele>1640.042969</ele>
        <time>2013-10-01T21:21:59Z</time>
      </trkpt>
      <trkpt lat="45.15726" lon="5.57853">
        <ele>1638.240479</ele>
        <time>2013-10-01T21:22:08Z</time>
      </trkpt>
      <trkpt lat="45.15689" lon="5.57854">
        <ele>1634.09729</ele>
        <time>2013-10-01T21:22:18Z</time>
      </trkpt>
      <trkpt lat="45.15659" lon="5.57862">
        <ele>1630.134399</ele>
        <time>2013-10-01T21:22:26Z</time>
      </trkpt>
      <trkpt lat="45.15653" lon="5.5787">
        <ele>1629.469116</ele>
        <time>2013-10-01T21:22:29Z</time>
      </trkpt>
      <trkpt lat="45.15595" lon="5.57883">
        <ele>1625.203125</ele>
        <time>2013-10-01T21:22:44Z</time>
      </trkpt>
      <trkpt lat="45.15552" lon="5.57857">
        <ele>1622.003662</ele>
        <time>2013-10-01T21:22:57Z</time>
      </trkpt>
      <trkpt lat="45.15533" lon="5.57832">
        <ele>1620.827271</ele>
        <time>2013-10-01T21:23:04Z</time>
      </trkpt>
      <trkpt lat="45.15479" lon="5.57784">
        <ele>1616.272217</ele>
        <time>2013-10-01T21:23:20Z</time>
      </trkpt>
      <trkpt lat="45.15461" lon="5.57779">
        <ele>1615.276123</ele>
        <time>2013-10-01T21:23:25Z</time>
      </trkpt>
      <trkpt lat="45.154" lon="5.57794">
        <ele>1611.381226</ele>
        <time>2013-10-01T21:23:42Z</time>
      </trkpt>
      <trkpt lat="45.15347" lon="5.57786">
        <ele>1608.797607</ele>
        <time>2013-10-01T21:23:56Z</time>
      </trkpt>
      <trkpt lat="45.15292" lon="5.57761">
        <ele>1607.58313</ele>
        <time>2013-10-01T21:24:12Z</time>
      </trkpt>
      <trkpt lat="45.15269" lon="5.5776">
        <ele>1606.707031</ele>
        <time>2013-10-01T21:24:18Z</time>
      </trkpt>
      <trkpt lat="45.15255" lon="5.57746">
        <ele>1606.247314</ele>
        <time>2013-10-01T21:24:22Z</time>
      </trkpt>
      <trkpt lat="45.15243" lon="5.57748">
        <ele>1604.612549</ele>
        <time>2013-10-01T21:24:25Z</time>
      </trkpt>
      <trkpt lat="45.15187" lon="5.57725">
        <ele>1599.375854</ele>
        <time>2013-10-01T21:24:41Z</time>
      </trkpt>
      <trkpt lat="45.15099" lon="5.57676">
        <ele>1587.530884</ele>
        <time>2013-10-01T21:25:06Z</time>
      </trkpt>
      <trkpt lat="45.15074" lon="5.57676">
        <ele>1584.351563</ele>
        <time>2013-10-01T21:25:13Z</time>
      </trkpt>
      <trkpt lat="45.15044" lon="5.57685">
        <ele>1580.458374</ele>
        <time>2013-10-01T21:25:21Z</time>
      </trkpt>
      <trkpt lat="45.15013" lon="5.57683">
        <ele>1577.678711</ele>
        <time>2013-10-01T21:25:29Z</time>
      </trkpt>
      <trkpt lat="45.14993" lon="5.57691">
        <ele>1574.945679</ele>
        <time>2013-10-01T21:25:35Z</time>
      </trkpt>
      <trkpt lat="45.14964" lon="5.57689">
        <ele>1572.65271</ele>
        <time>2013-10-01T21:25:43Z</time>
      </trkpt>
      <trkpt lat="45.14939" lon="5.57668">
        <ele>1572.824585</ele>
        <time>2013-10-01T21:25:50Z</time>
      </trkpt>
      <trkpt lat="45.14881" lon="5.57649">
        <ele>1569.034302</ele>
        <time>2013-10-01T21:26:06Z</time>
      </trkpt>
      <trkpt lat="45.14853" lon="5.57629">
        <ele>1565.920654</ele>
        <time>2013-10-01T21:26:15Z</time>
      </trkpt>
      <trkpt lat="45.1483" lon="5.57586">
        <ele>1562.384155</ele>
        <time>2013-10-01T21:26:25Z</time>
      </trkpt>
      <trkpt lat="45.1482" lon="5.57581">
        <ele>1560.867432</ele>
        <time>2013-10-01T21:26:28Z</time>
      </trkpt>
      <trkpt lat="45.14794" lon="5.5758">
        <ele>1558.05481</ele>
        <time>2013-10-01T21:26:35Z</time>
      </trkpt>
      <trkpt lat="45.14716" lon="5.57565">
        <ele>1551.563965</ele>
        <time>2013-10-01T21:26:55Z</time>
      </trkpt>
      <trkpt lat="45.14661" lon="5.57565">
        <ele>1546.706787</ele>
        <time>2013-10-01T21:27:10Z</time>
      </trkpt>
      <trkpt lat="45.14646" lon="5.57559">
        <ele>1544.740234</ele>
        <time>2013-10-01T21:27:14Z</time>
      </trkpt>
      <trkpt lat="45.1457" lon="5.5756">
        <ele>1537.644775</ele>
        <time>2013-10-01T21:27:35Z</time>
      </trkpt>
      <trkpt lat="45.14549" lon="5.57535">
        <ele>1535.383789</ele>
        <time>2013-10-01T21:27:42Z</time>
      </trkpt>
      <trkpt lat="45.14534" lon="5.5753">
        <ele>1534.300049</ele>
        <time>2013-10-01T21:27:46Z</time>
      </trkpt>
      <trkpt lat="45.14486" lon="5.57527">
        <ele>1530.415649</ele>
        <time>2013-10-01T21:27:59Z</time>
      </trkpt>
      <trkpt lat="45.14418" lon="5.57529">
        <ele>1522.917114</ele>
        <time>2013-10-01T21:28:17Z</time>
      </trkpt>
      <trkpt lat="45.1437" lon="5.57551">
        <ele>1517.867065</ele>
        <time>2013-10-01T21:28:30Z</time>
      </trkpt>
      <trkpt lat="45.14359" lon="5.57545">
        <ele>1514.876221</ele>
        <time>2013-10-01T21:28:34Z</time>
      </trkpt>
      <trkpt lat="45.14356" lon="5.57549">
        <ele>1514.147705</ele>
        <time>2013-10-01T21:28:35Z</time>
      </trkpt>
      <trkpt lat="45.1434" lon="5.5755">
        <ele>1510.20813</ele>
        <time>2013-10-01T21:28:39Z</time>
      </trkpt>
      <trkpt lat="45.14319" lon="5.57561">
        <ele>1502.425049</ele>
        <time>2013-10-01T21:28:45Z</time>
      </trkpt>
      <trkpt lat="45.14278" lon="5.57555">
        <ele>1494.710449</ele>
        <time>2013-10-01T21:28:56Z</time>
      </trkpt>
      <trkpt lat="45.1425" lon="5.57543">
        <ele>1493.1875</ele>
        <time>2013-10-01T21:29:03Z</time>
      </trkpt>
      <trkpt lat="45.14208" lon="5.57513">
        <ele>1490.604126</ele>
        <time>2013-10-01T21:29:16Z</time>
      </trkpt>
      <trkpt lat="45.14203" lon="5.57505">
        <ele>1490.771973</ele>
        <time>2013-10-01T21:29:18Z</time>
      </trkpt>
      <trkpt lat="45.14173" lon="5.5749">
        <ele>1490.388184</ele>
        <time>2013-10-01T21:29:26Z</time>
      </trkpt>
      <trkpt lat="45.14134" lon="5.57489">
        <ele>1488.581421</ele>
        <time>2013-10-01T21:29:37Z</time>
      </trkpt>
      <trkpt lat="45.14097" lon="5.5748">
        <ele>1487.983398</ele>
        <time>2013-10-01T21:29:47Z</time>
      </trkpt>
      <trkpt lat="45.14075" lon="5.57464">
        <ele>1486.532104</ele>
        <time>2013-10-01T21:29:53Z</time>
      </trkpt>
      <trkpt lat="45.14036" lon="5.57462">
        <ele>1482.222534</ele>
        <time>2013-10-01T21:30:04Z</time>
      </trkpt>
      <trkpt lat="45.14031" lon="5.5745">
        <ele>1481.62439</ele>
        <time>2013-10-01T21:30:07Z</time>
      </trkpt>
      <trkpt lat="45.1402" lon="5.57438">
        <ele>1480.842773</ele>
        <time>2013-10-01T21:30:10Z</time>
      </trkpt>
      <trkpt lat="45.13958" lon="5.5743">
        <ele>1467.514893</ele>
        <time>2013-10-01T21:30:27Z</time>
      </trkpt>
      <trkpt lat="45.13948" lon="5.57435">
        <ele>1463.779541</ele>
        <time>2013-10-01T21:30:30Z</time>
      </trkpt>
      <trkpt lat="45.13941" lon="5.5743">
        <ele>1462.710693</ele>
        <time>2013-10-01T21:30:32Z</time>
      </trkpt>
      <trkpt lat="45.1392" lon="5.57434">
        <ele>1455.950806</ele>
        <time>2013-10-01T21:30:38Z</time>
      </trkpt>
      <trkpt lat="45.1385" lon="5.57408">
        <ele>1447.521606</ele>
        <time>2013-10-01T21:30:57Z</time>
      </trkpt>
      <trkpt lat="45.13815" lon="5.57411">
        <ele>1437.344971</ele>
        <time>2013-10-01T21:31:06Z</time>
      </trkpt>
      <trkpt lat="45.13787" lon="5.57429">
        <ele>1421.739014</ele>
        <time>2013-10-01T21:31:14Z</time>
      </trkpt>
      <trkpt lat="45.13753" lon="5.57424">
        <ele>1414.016846</ele>
        <time>2013-10-01T21:31:24Z</time>
      </trkpt>
      <trkpt lat="45.13739" lon="5.57415">
        <ele>1413.994995</ele>
        <time>2013-10-01T21:31:28Z</time>
      </trkpt>
      <trkpt lat="45.13744" lon="5.57389">
        <ele>1423.476563</ele>
        <time>2013-10-01T21:31:33Z</time>
      </trkpt>
      <trkpt lat="45.13738" lon="5.57361">
        <ele>1425.660767</ele>
        <time>2013-10-01T21:31:38Z</time>
      </trkpt>
      <trkpt lat="45.13717" lon="5.57338">
        <ele>1424.094727</ele>
        <time>2013-10-01T21:31:45Z</time>
      </trkpt>
      <trkpt lat="45.13651" lon="5.57244">
        <ele>1405.303223</ele>
        <time>2013-10-01T21:32:10Z</time>
      </trkpt>
      <trkpt lat="45.1354" lon="5.57142">
        <ele>1389.986816</ele>
        <time>2013-10-01T21:32:45Z</time>
      </trkpt>
      <trkpt lat="45.13518" lon="5.57133">
        <ele>1386.151367</ele>
        <time>2013-10-01T21:32:51Z</time>
      </trkpt>
      <trkpt lat="45.13495" lon="5.57111">
        <ele>1380.922974</ele>
        <time>2013-10-01T21:32:59Z</time>
      </trkpt>
      <trkpt lat="45.13481" lon="5.57108">
        <ele>1378.427002</ele>
        <time>2013-10-01T21:33:03Z</time>
      </trkpt>
      <trkpt lat="45.13462" lon="5.57088">
        <ele>1373.619507</ele>
        <time>2013-10-01T21:33:09Z</time>
      </trkpt>
      <trkpt lat="45.13428" lon="5.57071">
        <ele>1366.531738</ele>
        <time>2013-10-01T21:33:19Z</time>
      </trkpt>
      <trkpt lat="45.13394" lon="5.5704">
        <ele>1362.166626</ele>
        <time>2013-10-01T21:33:29Z</time>
      </trkpt>
      <trkpt lat="45.13371" lon="5.56982">
        <ele>1353.380859</ele>
        <time>2013-10-01T21:33:42Z</time>
      </trkpt>
      <trkpt lat="45.1333" lon="5.56919">
        <ele>1340.370605</ele>
        <time>2013-10-01T21:33:58Z</time>
      </trkpt>
      <trkpt lat="45.13296" lon="5.56847">
        <ele>1326.704224</ele>
        <time>2013-10-01T21:34:14Z</time>
      </trkpt>
      <trkpt lat="45.13283" lon="5.56785">
        <ele>1317.92627</ele>
        <time>2013-10-01T21:34:26Z</time>
      </trkpt>
      <trkpt lat="45.13272" lon="5.5676">
        <ele>1311.321167</ele>
        <time>2013-10-01T21:34:32Z</time>
      </trkpt>
      <trkpt lat="45.13247" lon="5.56721">
        <ele>1304.384277</ele>
        <time>2013-10-01T21:34:42Z</time>
      </trkpt>
      <trkpt lat="45.13242" lon="5.56707">
        <ele>1301.86731</ele>
        <time>2013-10-01T21:34:45Z</time>
      </trkpt>
      <trkpt lat="45.13217" lon="5.5667">
        <ele>1290.369507</ele>
        <time>2013-10-01T21:34:54Z</time>
      </trkpt>
      <trkpt lat="45.13207" lon="5.56663">
        <ele>1288.370117</ele>
        <time>2013-10-01T21:34:57Z</time>
      </trkpt>
      <trkpt lat="45.13123" lon="5.56635">
        <ele>1286.331177</ele>
        <time>2013-10-01T21:35:20Z</time>
      </trkpt>
      <trkpt lat="45.13088" lon="5.56633">
        <ele>1290.977051</ele>
        <time>2013-10-01T21:35:30Z</time>
      </trkpt>
      <trkpt lat="45.13031" lon="5.56586">
        <ele>1290.820923</ele>
        <time>2013-10-01T21:35:47Z</time>
      </trkpt>
      <trkpt lat="45.13026" lon="5.56578">
        <ele>1290.464722</ele>
        <time>2013-10-01T21:35:49Z</time>
      </trkpt>
      <trkpt lat="45.13019" lon="5.5654">
        <ele>1286.805176</ele>
        <time>2013-10-01T21:35:57Z</time>
      </trkpt>
      <trkpt lat="45.13018" lon="5.56516">
        <ele>1283.90271</ele>
        <time>2013-10-01T21:36:01Z</time>
      </trkpt>
      <trkpt lat="45.13012" lon="5.56489">
        <ele>1281.575073</ele>
        <time>2013-10-01T21:36:07Z</time>
      </trkpt>
      <trkpt lat="45.12992" lon="5.56447">
        <ele>1276.888794</ele>
        <time>2013-10-01T21:36:16Z</time>
      </trkpt>
      <trkpt lat="45.12997" lon="5.56399">
        <ele>1268.194946</ele>
        <time>2013-10-01T21:36:25Z</time>
      </trkpt>
      <trkpt lat="45.12996" lon="5.56363">
        <ele>1261.784302</ele>
        <time>2013-10-01T21:36:32Z</time>
      </trkpt>
      <trkpt lat="45.12988" lon="5.56322">
        <ele>1255.456909</ele>
        <time>2013-10-01T21:36:40Z</time>
      </trkpt>
      <trkpt lat="45.12991" lon="5.56284">
        <ele>1249.442749</ele>
        <time>2013-10-01T21:36:47Z</time>
      </trkpt>
      <trkpt lat="45.13006" lon="5.56258">
        <ele>1244.961792</ele>
        <time>2013-10-01T21:36:53Z</time>
      </trkpt>
      <trkpt lat="45.13012" lon="5.56228">
        <ele>1240.870483</ele>
        <time>2013-10-01T21:36:59Z</time>
      </trkpt>
      <trkpt lat="45.13019" lon="5.56158">
        <ele>1231.488525</ele>
        <time>2013-10-01T21:37:12Z</time>
      </trkpt>
      <trkpt lat="45.13016" lon="5.56124">
        <ele>1228.5177</ele>
        <time>2013-10-01T21:37:19Z</time>
      </trkpt>
      <trkpt lat="45.13029" lon="5.56078">
        <ele>1224.129761</ele>
        <time>2013-10-01T21:37:28Z</time>
      </trkpt>
      <trkpt lat="45.13031" lon="5.5606">
        <ele>1223.382935</ele>
        <time>2013-10-01T21:37:32Z</time>
      </trkpt>
      <trkpt lat="45.13026" lon="5.56013">
        <ele>1221.844971</ele>
        <time>2013-10-01T21:37:41Z</time>
      </trkpt>
      <trkpt lat="45.1304" lon="5.55975">
        <ele>1221.567505</ele>
        <time>2013-10-01T21:37:49Z</time>
      </trkpt>
      <trkpt lat="45.13038" lon="5.5597">
        <ele>1221.612549</ele>
        <time>2013-10-01T21:37:50Z</time>
      </trkpt>
      <trkpt lat="45.13017" lon="5.55972">
        <ele>1221.976929</ele>
        <time>2013-10-01T21:37:55Z</time>
      </trkpt>
      <trkpt lat="45.13006" lon="5.55954">
        <ele>1221.983887</ele>
        <time>2013-10-01T21:38:00Z</time>
      </trkpt>
      <trkpt lat="45.1299" lon="5.55946">
        <ele>1222.130005</ele>
        <time>2013-10-01T21:38:04Z</time>
      </trkpt>
      <trkpt lat="45.12984" lon="5.55924">
        <ele>1222.814941</ele>
        <time>2013-10-01T21:38:09Z</time>
      </trkpt>
      <trkpt lat="45.12911" lon="5.55882">
        <ele>1220.501953</ele>
        <time>2013-10-01T21:38:30Z</time>
      </trkpt>
      <trkpt lat="45.12876" lon="5.55885">
        <ele>1217.723389</ele>
        <time>2013-10-01T21:38:39Z</time>
      </trkpt>
      <trkpt lat="45.12837" lon="5.55873">
        <ele>1216.01001</ele>
        <time>2013-10-01T21:38:50Z</time>
      </trkpt>
      <trkpt lat="45.12821" lon="5.55863">
        <ele>1215.650024</ele>
        <time>2013-10-01T21:38:54Z</time>
      </trkpt>
      <trkpt lat="45.128" lon="5.55861">
        <ele>1213.910034</ele>
        <time>2013-10-01T21:39:00Z</time>
      </trkpt>
      <trkpt lat="45.12714" lon="5.55811">
        <ele>1212.776245</ele>
        <time>2013-10-01T21:39:25Z</time>
      </trkpt>
      <trkpt lat="45.12672" lon="5.55772">
        <ele>1217.0625</ele>
        <time>2013-10-01T21:39:38Z</time>
      </trkpt>
      <trkpt lat="45.12657" lon="5.55766">
        <ele>1218.246094</ele>
        <time>2013-10-01T21:39:42Z</time>
      </trkpt>
      <trkpt lat="45.12649" lon="5.55768">
        <ele>1218.638306</ele>
        <time>2013-10-01T21:39:44Z</time>
      </trkpt>
      <trkpt lat="45.1263" lon="5.55783">
        <ele>1218.423218</ele>
        <time>2013-10-01T21:39:50Z</time>
      </trkpt>
      <trkpt lat="45.12589" lon="5.55831">
        <ele>1212.82251</ele>
        <time>2013-10-01T21:40:04Z</time>
      </trkpt>
      <trkpt lat="45.12569" lon="5.55837">
        <ele>1212.46936</ele>
        <time>2013-10-01T21:40:10Z</time>
      </trkpt>
      <trkpt lat="45.12543" lon="5.55836">
        <ele>1212.833374</ele>
        <time>2013-10-01T21:40:17Z</time>
      </trkpt>
      <trkpt lat="45.12522" lon="5.5583">
        <ele>1213.258301</ele>
        <time>2013-10-01T21:40:22Z</time>
      </trkpt>
      <trkpt lat="45.12495" lon="5.55813">
        <ele>1212.671143</ele>
        <time>2013-10-01T21:40:30Z</time>
      </trkpt>
      <trkpt lat="45.12481" lon="5.55795">
        <ele>1212.564941</ele>
        <time>2013-10-01T21:40:35Z</time>
      </trkpt>
      <trkpt lat="45.12469" lon="5.55763">
        <ele>1214.032959</ele>
        <time>2013-10-01T21:40:42Z</time>
      </trkpt>
      <trkpt lat="45.12452" lon="5.55754">
        <ele>1213.319702</ele>
        <time>2013-10-01T21:40:47Z</time>
      </trkpt>
      <trkpt lat="45.1244" lon="5.55743">
        <ele>1213.45752</ele>
        <time>2013-10-01T21:40:51Z</time>
      </trkpt>
      <trkpt lat="45.12402" lon="5.55738">
        <ele>1212.044922</ele>
        <time>2013-10-01T21:41:01Z</time>
      </trkpt>
      <trkpt lat="45.12376" lon="5.55748">
        <ele>1210.15564</ele>
        <time>2013-10-01T21:41:08Z</time>
      </trkpt>
      <trkpt lat="45.12346" lon="5.55768">
        <ele>1207.89917</ele>
        <time>2013-10-01T21:41:17Z</time>
      </trkpt>
      <trkpt lat="45.12327" lon="5.55775">
        <ele>1206.811035</ele>
        <time>2013-10-01T21:41:22Z</time>
      </trkpt>
      <trkpt lat="45.12318" lon="5.55774">
        <ele>1206.55957</ele>
        <time>2013-10-01T21:41:25Z</time>
      </trkpt>
      <trkpt lat="45.12252" lon="5.5573">
        <ele>1195.296753</ele>
        <time>2013-10-01T21:41:44Z</time>
      </trkpt>
      <trkpt lat="45.12239" lon="5.55704">
        <ele>1190.76416</ele>
        <time>2013-10-01T21:41:50Z</time>
      </trkpt>
      <trkpt lat="45.12237" lon="5.55688">
        <ele>1190.774658</ele>
        <time>2013-10-01T21:41:53Z</time>
      </trkpt>
      <trkpt lat="45.12245" lon="5.55641">
        <ele>1192.978394</ele>
        <time>2013-10-01T21:42:02Z</time>
      </trkpt>
      <trkpt lat="45.12256" lon="5.55604">
        <ele>1194.622437</ele>
        <time>2013-10-01T21:42:10Z</time>
      </trkpt>
      <trkpt lat="45.12256" lon="5.55595">
        <ele>1194.945313</ele>
        <time>2013-10-01T21:42:12Z</time>
      </trkpt>
      <trkpt lat="45.12206" lon="5.55612">
        <ele>1197.908447</ele>
        <time>2013-10-01T21:42:25Z</time>
      </trkpt>
      <trkpt lat="45.12182" lon="5.55634">
        <ele>1197.732788</ele>
        <time>2013-10-01T21:42:33Z</time>
      </trkpt>
      <trkpt lat="45.12145" lon="5.55692">
        <ele>1194.253296</ele>
        <time>2013-10-01T21:42:48Z</time>
      </trkpt>
      <trkpt lat="45.12109" lon="5.55727">
        <ele>1196.663696</ele>
        <time>2013-10-01T21:42:59Z</time>
      </trkpt>
      <trkpt lat="45.12095" lon="5.55764">
        <ele>1197.436035</ele>
        <time>2013-10-01T21:43:07Z</time>
      </trkpt>
      <trkpt lat="45.1208" lon="5.55781">
        <ele>1200.699463</ele>
        <time>2013-10-01T21:43:12Z</time>
      </trkpt>
      <trkpt lat="45.12063" lon="5.55791">
        <ele>1201.327148</ele>
        <time>2013-10-01T21:43:17Z</time>
      </trkpt>
      <trkpt lat="45.12051" lon="5.55805">
        <ele>1201.373413</ele>
        <time>2013-10-01T21:43:21Z</time>
      </trkpt>
      <trkpt lat="45.11984" lon="5.55718">
        <ele>1204.350708</ele>
        <time>2013-10-01T21:43:46Z</time>
      </trkpt>
      <trkpt lat="45.1196" lon="5.55698">
        <ele>1205.344971</ele>
        <time>2013-10-01T21:43:53Z</time>
      </trkpt>
      <trkpt lat="45.11954" lon="5.55681">
        <ele>1206.51123</ele>
        <time>2013-10-01T21:43:57Z</time>
      </trkpt>
      <trkpt lat="45.11955" lon="5.55658">
        <ele>1208.388794</ele>
        <time>2013-10-01T21:44:01Z</time>
      </trkpt>
      <trkpt lat="45.11917" lon="5.55572">
        <ele>1212.936279</ele>
        <time>2013-10-01T21:44:20Z</time>
      </trkpt>
      <trkpt lat="45.11898" lon="5.55542">
        <ele>1213.552368</ele>
        <time>2013-10-01T21:44:28Z</time>
      </trkpt>
      <trkpt lat="45.11859" lon="5.55431">
        <ele>1222.057983</ele>
        <time>2013-10-01T21:44:51Z</time>
      </trkpt>
      <trkpt lat="45.11807" lon="5.55356">
        <ele>1221.117432</ele>
        <time>2013-10-01T21:45:11Z</time>
      </trkpt>
      <trkpt lat="45.11798" lon="5.55331">
        <ele>1222.984619</ele>
        <time>2013-10-01T21:45:16Z</time>
      </trkpt>
      <trkpt lat="45.11796" lon="5.55296">
        <ele>1228.179932</ele>
        <time>2013-10-01T21:45:23Z</time>
      </trkpt>
      <trkpt lat="45.11788" lon="5.5525">
        <ele>1233.639038</ele>
        <time>2013-10-01T21:45:31Z</time>
      </trkpt>
      <trkpt lat="45.11777" lon="5.55218">
        <ele>1236.591431</ele>
        <time>2013-10-01T21:45:38Z</time>
      </trkpt>
      <trkpt lat="45.11767" lon="5.55223">
        <ele>1237.418823</ele>
        <time>2013-10-01T21:45:41Z</time>
      </trkpt>
      <trkpt lat="45.11749" lon="5.55255">
        <ele>1235.060303</ele>
        <time>2013-10-01T21:45:49Z</time>
      </trkpt>
      <trkpt lat="45.11733" lon="5.55265">
        <ele>1234.5354</ele>
        <time>2013-10-01T21:45:53Z</time>
      </trkpt>
      <trkpt lat="45.11709" lon="5.55264">
        <ele>1235.197144</ele>
        <time>2013-10-01T21:46:00Z</time>
      </trkpt>
      <trkpt lat="45.11674" lon="5.55255">
        <ele>1235.037476</ele>
        <time>2013-10-01T21:46:09Z</time>
      </trkpt>
      <trkpt lat="45.11664" lon="5.55247">
        <ele>1235.31311</ele>
        <time>2013-10-01T21:46:12Z</time>
      </trkpt>
      <trkpt lat="45.11641" lon="5.55208">
        <ele>1238.821533</ele>
        <time>2013-10-01T21:46:22Z</time>
      </trkpt>
      <trkpt lat="45.1163" lon="5.5518">
        <ele>1241.787964</ele>
        <time>2013-10-01T21:46:28Z</time>
      </trkpt>
      <trkpt lat="45.11628" lon="5.55164">
        <ele>1243.517456</ele>
        <time>2013-10-01T21:46:31Z</time>
      </trkpt>
      <trkpt lat="45.11617" lon="5.55138">
        <ele>1245.084961</ele>
        <time>2013-10-01T21:46:37Z</time>
      </trkpt>
      <trkpt lat="45.11612" lon="5.55076">
        <ele>1250.541016</ele>
        <time>2013-10-01T21:46:49Z</time>
      </trkpt>
      <trkpt lat="45.11607" lon="5.55064">
        <ele>1251.06665</ele>
        <time>2013-10-01T21:46:51Z</time>
      </trkpt>
      <trkpt lat="45.11604" lon="5.55034">
        <ele>1253.311035</ele>
        <time>2013-10-01T21:46:57Z</time>
      </trkpt>
      <trkpt lat="45.11588" lon="5.54985">
        <ele>1255.600342</ele>
        <time>2013-10-01T21:47:07Z</time>
      </trkpt>
      <trkpt lat="45.11587" lon="5.5497">
        <ele>1256.438354</ele>
        <time>2013-10-01T21:47:10Z</time>
      </trkpt>
      <trkpt lat="45.11582" lon="5.54957">
        <ele>1256.864014</ele>
        <time>2013-10-01T21:47:13Z</time>
      </trkpt>
      <trkpt lat="45.11582" lon="5.5493">
        <ele>1258.22168</ele>
        <time>2013-10-01T21:47:18Z</time>
      </trkpt>
      <trkpt lat="45.11594" lon="5.54891">
        <ele>1258.205933</ele>
        <time>2013-10-01T21:47:26Z</time>
      </trkpt>
      <trkpt lat="45.11584" lon="5.54876">
        <ele>1258.439941</ele>
        <time>2013-10-01T21:47:30Z</time>
      </trkpt>
      <trkpt lat="45.11558" lon="5.54861">
        <ele>1260.180908</ele>
        <time>2013-10-01T21:47:37Z</time>
      </trkpt>
      <trkpt lat="45.11537" lon="5.54857">
        <ele>1261.047363</ele>
        <time>2013-10-01T21:47:43Z</time>
      </trkpt>
      <trkpt lat="45.11458" lon="5.54816">
        <ele>1263.242554</ele>
        <time>2013-10-01T21:48:05Z</time>
      </trkpt>
      <trkpt lat="45.11371" lon="5.54796">
        <ele>1264.414185</ele>
        <time>2013-10-01T21:48:28Z</time>
      </trkpt>
      <trkpt lat="45.11294" lon="5.54791">
        <ele>1262.536255</ele>
        <time>2013-10-01T21:48:49Z</time>
      </trkpt>
      <trkpt lat="45.11202" lon="5.54802">
        <ele>1257.157959</ele>
        <time>2013-10-01T21:49:14Z</time>
      </trkpt>
      <trkpt lat="45.11115" lon="5.54781">
        <ele>1251.773804</ele>
        <time>2013-10-01T21:49:37Z</time>
      </trkpt>
      <trkpt lat="45.11089" lon="5.54771">
        <ele>1250.226318</ele>
        <time>2013-10-01T21:49:44Z</time>
      </trkpt>
      <trkpt lat="45.11016" lon="5.54784">
        <ele>1246.925415</ele>
        <time>2013-10-01T21:50:04Z</time>
      </trkpt>
      <trkpt lat="45.10951" lon="5.54768">
        <ele>1244.581299</ele>
        <time>2013-10-01T21:50:22Z</time>
      </trkpt>
      <trkpt lat="45.10841" lon="5.5476">
        <ele>1236.820435</ele>
        <time>2013-10-01T21:50:51Z</time>
      </trkpt>
      <trkpt lat="45.10778" lon="5.54735">
        <ele>1228.290039</ele>
        <time>2013-10-01T21:51:08Z</time>
      </trkpt>
      <trkpt lat="45.10634" lon="5.54685">
        <ele>1216.087524</ele>
        <time>2013-10-01T21:51:48Z</time>
      </trkpt>
      <trkpt lat="45.10628" lon="5.54679">
        <ele>1215.118774</ele>
        <time>2013-10-01T21:51:50Z</time>
      </trkpt>
      <trkpt lat="45.10607" lon="5.54639">
        <ele>1211.897705</ele>
        <time>2013-10-01T21:51:59Z</time>
      </trkpt>
      <trkpt lat="45.10598" lon="5.54609">
        <ele>1210.743652</ele>
        <time>2013-10-01T21:52:06Z</time>
      </trkpt>
      <trkpt lat="45.10609" lon="5.54612">
        <ele>1211.322266</ele>
        <time>2013-10-01T21:52:09Z</time>
      </trkpt>
      <trkpt lat="45.10692" lon="5.54596">
        <ele>1208.503662</ele>
        <time>2013-10-01T21:52:31Z</time>
      </trkpt>
      <trkpt lat="45.1073" lon="5.54624">
        <ele>1206.669556</ele>
        <time>2013-10-01T21:52:42Z</time>
      </trkpt>
      <trkpt lat="45.10771" lon="5.54628">
        <ele>1203.430176</ele>
        <time>2013-10-01T21:52:53Z</time>
      </trkpt>
      <trkpt lat="45.10809" lon="5.54609">
        <ele>1196.832886</ele>
        <time>2013-10-01T21:53:04Z</time>
      </trkpt>
      <trkpt lat="45.10913" lon="5.54515">
        <ele>1182.076782</ele>
        <time>2013-10-01T21:53:37Z</time>
      </trkpt>
      <trkpt lat="45.1109" lon="5.54408">
        <ele>1174.38501</ele>
        <time>2013-10-01T21:54:28Z</time>
      </trkpt>
      <trkpt lat="45.11102" lon="5.54394">
        <ele>1171.337524</ele>
        <time>2013-10-01T21:54:32Z</time>
      </trkpt>
      <trkpt lat="45.1111" lon="5.54379">
        <ele>1168.410034</ele>
        <time>2013-10-01T21:54:36Z</time>
      </trkpt>
      <trkpt lat="45.11112" lon="5.54369">
        <ele>1166.027588</ele>
        <time>2013-10-01T21:54:38Z</time>
      </trkpt>
      <trkpt lat="45.11103" lon="5.54315">
        <ele>1155.248779</ele>
        <time>2013-10-01T21:54:48Z</time>
      </trkpt>
      <trkpt lat="45.11115" lon="5.54267">
        <ele>1146.180298</ele>
        <time>2013-10-01T21:54:58Z</time>
      </trkpt>
      <trkpt lat="45.11151" lon="5.54224">
        <ele>1140.092773</ele>
        <time>2013-10-01T21:55:10Z</time>
      </trkpt>
      <trkpt lat="45.1115" lon="5.5419">
        <ele>1137.686523</ele>
        <time>2013-10-01T21:55:16Z</time>
      </trkpt>
      <trkpt lat="45.11161" lon="5.54127">
        <ele>1131.373047</ele>
        <time>2013-10-01T21:55:29Z</time>
      </trkpt>
      <trkpt lat="45.11178" lon="5.54075">
        <ele>1121.298706</ele>
        <time>2013-10-01T21:55:40Z</time>
      </trkpt>
      <trkpt lat="45.11196" lon="5.54048">
        <ele>1114.998047</ele>
        <time>2013-10-01T21:55:46Z</time>
      </trkpt>
      <trkpt lat="45.11222" lon="5.53977">
        <ele>1099.696411</ele>
        <time>2013-10-01T21:56:02Z</time>
      </trkpt>
      <trkpt lat="45.11231" lon="5.53961">
        <ele>1096.936646</ele>
        <time>2013-10-01T21:56:05Z</time>
      </trkpt>
      <trkpt lat="45.11232" lon="5.53942">
        <ele>1093.058716</ele>
        <time>2013-10-01T21:56:09Z</time>
      </trkpt>
      <trkpt lat="45.11269" lon="5.53871">
        <ele>1073.657593</ele>
        <time>2013-10-01T21:56:26Z</time>
      </trkpt>
      <trkpt lat="45.11289" lon="5.53856">
        <ele>1069.238525</ele>
        <time>2013-10-01T21:56:32Z</time>
      </trkpt>
      <trkpt lat="45.11302" lon="5.53826">
        <ele>1060.008545</ele>
        <time>2013-10-01T21:56:38Z</time>
      </trkpt>
      <trkpt lat="45.11319" lon="5.53768">
        <ele>1049.426025</ele>
        <time>2013-10-01T21:56:50Z</time>
      </trkpt>
      <trkpt lat="45.11317" lon="5.53751">
        <ele>1046.560791</ele>
        <time>2013-10-01T21:56:53Z</time>
      </trkpt>
      <trkpt lat="45.11309" lon="5.53731">
        <ele>1042.398438</ele>
        <time>2013-10-01T21:56:58Z</time>
      </trkpt>
      <trkpt lat="45.11305" lon="5.53707">
        <ele>1037.411987</ele>
        <time>2013-10-01T21:57:02Z</time>
      </trkpt>
      <trkpt lat="45.11314" lon="5.5367">
        <ele>1028.811157</ele>
        <time>2013-10-01T21:57:10Z</time>
      </trkpt>
      <trkpt lat="45.11319" lon="5.53664">
        <ele>1027.67334</ele>
        <time>2013-10-01T21:57:12Z</time>
      </trkpt>
      <trkpt lat="45.1135" lon="5.53653">
        <ele>1024.46936</ele>
        <time>2013-10-01T21:57:20Z</time>
      </trkpt>
      <trkpt lat="45.11363" lon="5.53643">
        <ele>1020.095581</ele>
        <time>2013-10-01T21:57:24Z</time>
      </trkpt>
      <trkpt lat="45.1144" lon="5.5363">
        <ele>1002.517517</ele>
        <time>2013-10-01T21:57:45Z</time>
      </trkpt>
      <trkpt lat="45.11505" lon="5.53669">
        <ele>995.128845</ele>
        <time>2013-10-01T21:58:04Z</time>
      </trkpt>
      <trkpt lat="45.1156" lon="5.53662">
        <ele>983.440491</ele>
        <time>2013-10-01T21:58:18Z</time>
      </trkpt>
      <trkpt lat="45.11588" lon="5.53662">
        <ele>980.114502</ele>
        <time>2013-10-01T21:58:26Z</time>
      </trkpt>
      <trkpt lat="45.11617" lon="5.53669">
        <ele>977.551758</ele>
        <time>2013-10-01T21:58:34Z</time>
      </trkpt>
      <trkpt lat="45.11679" lon="5.5371">
        <ele>973.875</ele>
        <time>2013-10-01T21:58:52Z</time>
      </trkpt>
      <trkpt lat="45.11721" lon="5.53707">
        <ele>971.179993</ele>
        <time>2013-10-01T21:59:03Z</time>
      </trkpt>
      <trkpt lat="45.11751" lon="5.53714">
        <ele>970.134766</ele>
        <time>2013-10-01T21:59:11Z</time>
      </trkpt>
      <trkpt lat="45.11874" lon="5.53762">
        <ele>968.150208</ele>
        <time>2013-10-01T21:59:45Z</time>
      </trkpt>
      <trkpt lat="45.11913" lon="5.53711">
        <ele>969.674988</ele>
        <time>2013-10-01T21:59:59Z</time>
      </trkpt>
      <trkpt lat="45.11921" lon="5.53714">
        <ele>969.813721</ele>
        <time>2013-10-01T22:00:02Z</time>
      </trkpt>
      <trkpt lat="45.11931" lon="5.53729">
        <ele>969.982422</ele>
        <time>2013-10-01T22:00:05Z</time>
      </trkpt>
      <trkpt lat="45.11953" lon="5.53746">
        <ele>969.962341</ele>
        <time>2013-10-01T22:00:12Z</time>
      </trkpt>
      <trkpt lat="45.11969" lon="5.53765">
        <ele>970.222473</ele>
        <time>2013-10-01T22:00:18Z</time>
      </trkpt>
      <trkpt lat="45.11988" lon="5.53781">
        <ele>970.659973</ele>
        <time>2013-10-01T22:00:24Z</time>
      </trkpt>
      <trkpt lat="45.12039" lon="5.53806">
        <ele>971.657471</ele>
        <time>2013-10-01T22:00:38Z</time>
      </trkpt>
      <trkpt lat="45.1207" lon="5.53812">
        <ele>972.3797</ele>
        <time>2013-10-01T22:00:46Z</time>
      </trkpt>
      <trkpt lat="45.12098" lon="5.53811">
        <ele>973.122498</ele>
        <time>2013-10-01T22:00:54Z</time>
      </trkpt>
      <trkpt lat="45.1225" lon="5.53831">
        <ele>978.678101</ele>
        <time>2013-10-01T22:01:34Z</time>
      </trkpt>
      <trkpt lat="45.12297" lon="5.53865">
        <ele>980.431274</ele>
        <time>2013-10-01T22:01:49Z</time>
      </trkpt>
      <trkpt lat="45.12321" lon="5.53871">
        <ele>981.028748</ele>
        <time>2013-10-01T22:01:55Z</time>
      </trkpt>
      <trkpt lat="45.12411" lon="5.53841">
        <ele>981.421265</ele>
        <time>2013-10-01T22:02:20Z</time>
      </trkpt>
      <trkpt lat="45.1246" lon="5.53832">
        <ele>982</ele>
        <time>2013-10-01T22:02:33Z</time>
      </trkpt>
      <trkpt lat="45.12542" lon="5.53833">
        <ele>982.879578</ele>
        <time>2013-10-01T22:02:55Z</time>
      </trkpt>
      <trkpt lat="45.12576" lon="5.53826">
        <ele>983.723999</ele>
        <time>2013-10-01T22:03:04Z</time>
      </trkpt>
      <trkpt lat="45.12625" lon="5.53795">
        <ele>984.359558</ele>
        <time>2013-10-01T22:03:18Z</time>
      </trkpt>
      <trkpt lat="45.12746" lon="5.53737">
        <ele>990.661438</ele>
        <time>2013-10-01T22:03:52Z</time>
      </trkpt>
      <trkpt lat="45.12774" lon="5.5374">
        <ele>990.645996</ele>
        <time>2013-10-01T22:04:00Z</time>
      </trkpt>
      <trkpt lat="45.12802" lon="5.53728">
        <ele>991.099243</ele>
        <time>2013-10-01T22:04:08Z</time>
      </trkpt>
      <trkpt lat="45.1284" lon="5.53735">
        <ele>991.46875</ele>
        <time>2013-10-01T22:04:18Z</time>
      </trkpt>
      <trkpt lat="45.12863" lon="5.53746">
        <ele>992.100708</ele>
        <time>2013-10-01T22:04:24Z</time>
      </trkpt>
      <trkpt lat="45.12961" lon="5.5381">
        <ele>999.229736</ele>
        <time>2013-10-01T22:04:53Z</time>
      </trkpt>
      <trkpt lat="45.1306" lon="5.53869">
        <ele>1007.569946</ele>
        <time>2013-10-01T22:05:22Z</time>
      </trkpt>
      <trkpt lat="45.13137" lon="5.53866">
        <ele>1016.306274</ele>
        <time>2013-10-01T22:05:42Z</time>
      </trkpt>
      <trkpt lat="45.13144" lon="5.53861">
        <ele>1017.359985</ele>
        <time>2013-10-01T22:05:44Z</time>
      </trkpt>
      <trkpt lat="45.13151" lon="5.53847">
        <ele>1017.434998</ele>
        <time>2013-10-01T22:05:48Z</time>
      </trkpt>
      <trkpt lat="45.13165" lon="5.53802">
        <ele>1016.155029</ele>
        <time>2013-10-01T22:05:57Z</time>
      </trkpt>
      <trkpt lat="45.13167" lon="5.53779">
        <ele>1015.633972</ele>
        <time>2013-10-01T22:06:01Z</time>
      </trkpt>
      <trkpt lat="45.13163" lon="5.53755">
        <ele>1014.121643</ele>
        <time>2013-10-01T22:06:06Z</time>
      </trkpt>
      <trkpt lat="45.1313" lon="5.5364">
        <ele>1003.648438</ele>
        <time>2013-10-01T22:06:29Z</time>
      </trkpt>
      <trkpt lat="45.13126" lon="5.53615">
        <ele>1001.455078</ele>
        <time>2013-10-01T22:06:34Z</time>
      </trkpt>
      <trkpt lat="45.13124" lon="5.53512">
        <ele>994.349731</ele>
        <time>2013-10-01T22:06:53Z</time>
      </trkpt>
      <trkpt lat="45.13047" lon="5.53163">
        <ele>974.935181</ele>
        <time>2013-10-01T22:08:02Z</time>
      </trkpt>
      <trkpt lat="45.1305" lon="5.53122">
        <ele>974.311279</ele>
        <time>2013-10-01T22:08:10Z</time>
      </trkpt>
      <trkpt lat="45.13135" lon="5.5289">
        <ele>974.854553</ele>
        <time>2013-10-01T22:08:59Z</time>
      </trkpt>
      <trkpt lat="45.13134" lon="5.5287">
        <ele>974.480103</ele>
        <time>2013-10-01T22:09:03Z</time>
      </trkpt>
      <trkpt lat="45.13138" lon="5.52856">
        <ele>974.261353</ele>
        <time>2013-10-01T22:09:06Z</time>
      </trkpt>
      <trkpt lat="45.13146" lon="5.5285">
        <ele>974.168945</ele>
        <time>2013-10-01T22:09:08Z</time>
      </trkpt>
      <trkpt lat="45.13718" lon="5.52631">
        <ele>980.62677</ele>
        <time>2013-10-01T22:11:46Z</time>
      </trkpt>
      <trkpt lat="45.13779" lon="5.52626">
        <ele>982.33252</ele>
        <time>2013-10-01T22:12:03Z</time>
      </trkpt>
      <trkpt lat="45.13942" lon="5.52629">
        <ele>990.933472</ele>
        <time>2013-10-01T22:12:46Z</time>
      </trkpt>
      <trkpt lat="45.1402" lon="5.52636">
        <ele>992.918274</ele>
        <time>2013-10-01T22:13:07Z</time>
      </trkpt>
      <trkpt lat="45.14114" lon="5.52637">
        <ele>995.126099</ele>
        <time>2013-10-01T22:13:32Z</time>
      </trkpt>
      <trkpt lat="45.143" lon="5.52631">
        <ele>997.66626</ele>
        <time>2013-10-01T22:14:21Z</time>
      </trkpt>
      <trkpt lat="45.14305" lon="5.52626">
        <ele>997.46875</ele>
        <time>2013-10-01T22:14:23Z</time>
      </trkpt>
      <trkpt lat="45.14314" lon="5.52629">
        <ele>998.148743</ele>
        <time>2013-10-01T22:14:26Z</time>
      </trkpt>
      <trkpt lat="45.14561" lon="5.52623">
        <ele>1000.207397</ele>
        <time>2013-10-01T22:15:31Z</time>
      </trkpt>
      <trkpt lat="45.15007" lon="5.52554">
        <ele>1000.090942</ele>
        <time>2013-10-01T22:17:31Z</time>
      </trkpt>
      <trkpt lat="45.15025" lon="5.52538">
        <ele>998.869629</ele>
        <time>2013-10-01T22:17:37Z</time>
      </trkpt>
      <trkpt lat="45.15089" lon="5.52335">
        <ele>996.452576</ele>
        <time>2013-10-01T22:18:18Z</time>
      </trkpt>
      <trkpt lat="45.15104" lon="5.52315">
        <ele>997.077515</ele>
        <time>2013-10-01T22:18:24Z</time>
      </trkpt>
      <trkpt lat="45.15114" lon="5.52309">
        <ele>997.526489</ele>
        <time>2013-10-01T22:18:27Z</time>
      </trkpt>
      <trkpt lat="45.15129" lon="5.52307">
        <ele>998.021851</ele>
        <time>2013-10-01T22:18:31Z</time>
      </trkpt>
      <trkpt lat="45.15234" lon="5.52334">
        <ele>999.61499</ele>
        <time>2013-10-01T22:18:59Z</time>
      </trkpt>
      <trkpt lat="45.15356" lon="5.52324">
        <ele>1002.724976</ele>
        <time>2013-10-01T22:19:32Z</time>
      </trkpt>
      <trkpt lat="45.15464" lon="5.52339">
        <ele>1004.981995</ele>
        <time>2013-10-01T22:20:01Z</time>
      </trkpt>
      <trkpt lat="45.15506" lon="5.52339">
        <ele>1005.175293</ele>
        <time>2013-10-01T22:20:12Z</time>
      </trkpt>
      <trkpt lat="45.15563" lon="5.52331">
        <ele>1007.247498</ele>
        <time>2013-10-01T22:20:27Z</time>
      </trkpt>
      <trkpt lat="45.15707" lon="5.5227">
        <ele>1010.999939</ele>
        <time>2013-10-01T22:21:08Z</time>
      </trkpt>
      <trkpt lat="45.15757" lon="5.52278">
        <ele>1011.643982</ele>
        <time>2013-10-01T22:21:21Z</time>
      </trkpt>
      <trkpt lat="45.15928" lon="5.5233">
        <ele>1010.147644</ele>
        <time>2013-10-01T22:22:08Z</time>
      </trkpt>
      <trkpt lat="45.16005" lon="5.52318">
        <ele>1010.474976</ele>
        <time>2013-10-01T22:22:28Z</time>
      </trkpt>
      <trkpt lat="45.16039" lon="5.5233">
        <ele>1010.727478</ele>
        <time>2013-10-01T22:22:38Z</time>
      </trkpt>
      <trkpt lat="45.16104" lon="5.52373">
        <ele>1010.678406</ele>
        <time>2013-10-01T22:22:57Z</time>
      </trkpt>
      <trkpt lat="45.16202" lon="5.5242">
        <ele>1012.583008</ele>
        <time>2013-10-01T22:23:24Z</time>
      </trkpt>
      <trkpt lat="45.16527" lon="5.52529">
        <ele>1016.664978</ele>
        <time>2013-10-01T22:24:53Z</time>
      </trkpt>
      <trkpt lat="45.16543" lon="5.5254">
        <ele>1016.692505</ele>
        <time>2013-10-01T22:24:58Z</time>
      </trkpt>
      <trkpt lat="45.16617" lon="5.52623">
        <ele>1016.331238</ele>
        <time>2013-10-01T22:25:23Z</time>
      </trkpt>
      <trkpt lat="45.16644" lon="5.52636">
        <ele>1016.402527</ele>
        <time>2013-10-01T22:25:31Z</time>
      </trkpt>
      <trkpt lat="45.16781" lon="5.52675">
        <ele>1017.38501</ele>
        <time>2013-10-01T22:26:08Z</time>
      </trkpt>
      <trkpt lat="45.16849" lon="5.5267">
        <ele>1019.034973</ele>
        <time>2013-10-01T22:26:26Z</time>
      </trkpt>
      <trkpt lat="45.16878" lon="5.52677">
        <ele>1018.967529</ele>
        <time>2013-10-01T22:26:34Z</time>
      </trkpt>
      <trkpt lat="45.17035" lon="5.52768">
        <ele>1020.308777</ele>
        <time>2013-10-01T22:27:19Z</time>
      </trkpt>
      <trkpt lat="45.17142" lon="5.52876">
        <ele>1023.047974</ele>
        <time>2013-10-01T22:27:54Z</time>
      </trkpt>
      <trkpt lat="45.17177" lon="5.52917">
        <ele>1023</ele>
        <time>2013-10-01T22:28:06Z</time>
      </trkpt>
      <trkpt lat="45.17222" lon="5.52985">
        <ele>1023.41748</ele>
        <time>2013-10-01T22:28:24Z</time>
      </trkpt>
      <trkpt lat="45.17277" lon="5.53055">
        <ele>1024.682495</ele>
        <time>2013-10-01T22:28:44Z</time>
      </trkpt>
      <trkpt lat="45.17357" lon="5.53264">
        <ele>1027.422485</ele>
        <time>2013-10-01T22:29:28Z</time>
      </trkpt>
      <trkpt lat="45.17371" lon="5.53317">
        <ele>1028.053589</ele>
        <time>2013-10-01T22:29:39Z</time>
      </trkpt>
      <trkpt lat="45.17375" lon="5.53349">
        <ele>1028.245728</ele>
        <time>2013-10-01T22:29:45Z</time>
      </trkpt>
      <trkpt lat="45.17375" lon="5.5338">
        <ele>1029.15686</ele>
        <time>2013-10-01T22:29:51Z</time>
      </trkpt>
      <trkpt lat="45.17364" lon="5.53463">
        <ele>1030.724609</ele>
        <time>2013-10-01T22:30:07Z</time>
      </trkpt>
      <trkpt lat="45.17368" lon="5.53492">
        <ele>1031.37915</ele>
        <time>2013-10-01T22:30:12Z</time>
      </trkpt>
      <trkpt lat="45.17389" lon="5.53545">
        <ele>1032.902466</ele>
        <time>2013-10-01T22:30:24Z</time>
      </trkpt>
      <trkpt lat="45.17428" lon="5.53615">
        <ele>1035.52124</ele>
        <time>2013-10-01T22:30:41Z</time>
      </trkpt>
      <trkpt lat="45.17436" lon="5.53644">
        <ele>1036.018188</ele>
        <time>2013-10-01T22:30:46Z</time>
      </trkpt>
      <trkpt lat="45.17442" lon="5.53685">
        <ele>1036.505005</ele>
        <time>2013-10-01T22:30:54Z</time>
      </trkpt>
      <trkpt lat="45.17414" lon="5.53853">
        <ele>1034.263916</ele>
        <time>2013-10-01T22:31:27Z</time>
      </trkpt>
      <trkpt lat="45.17371" lon="5.54039">
        <ele>1035.988281</ele>
        <time>2013-10-01T22:32:03Z</time>
      </trkpt>
      <trkpt lat="45.17373" lon="5.54053">
        <ele>1036.092407</ele>
        <time>2013-10-01T22:32:06Z</time>
      </trkpt>
      <trkpt lat="45.1744" lon="5.5412">
        <ele>1037.997925</ele>
        <time>2013-10-01T22:32:28Z</time>
      </trkpt>
      <trkpt lat="45.17453" lon="5.54126">
        <ele>1038</ele>
        <time>2013-10-01T22:32:32Z</time>
      </trkpt>
      <trkpt lat="45.17479" lon="5.54155">
        <ele>1038</ele>
        <time>2013-10-01T22:32:41Z</time>
      </trkpt>
      <trkpt lat="45.17507" lon="5.5419">
        <ele>1038.76123</ele>
        <time>2013-10-01T22:32:50Z</time>
      </trkpt>
      <trkpt lat="45.17361" lon="5.54489">
        <ele>1043.155396</ele>
        <time>2013-10-01T22:33:59Z</time>
      </trkpt>
      <trkpt lat="45.17516" lon="5.5469">
        <ele>1048.258301</ele>
        <time>2013-10-01T22:34:55Z</time>
      </trkpt>
      <trkpt lat="45.17495" lon="5.54889">
        <ele>1056.513794</ele>
        <time>2013-10-01T22:35:33Z</time>
      </trkpt>
      <trkpt lat="45.17577" lon="5.55031">
        <ele>1058.677612</ele>
        <time>2013-10-01T22:36:07Z</time>
      </trkpt>
      <trkpt lat="45.17517" lon="5.55182">
        <ele>1061.625</ele>
        <time>2013-10-01T22:36:40Z</time>
      </trkpt>
      <trkpt lat="45.17506" lon="5.55306">
        <ele>1065.098755</ele>
        <time>2013-10-01T22:37:03Z</time>
      </trkpt>
      <trkpt lat="45.17507" lon="5.55435">
        <ele>1070.087158</ele>
        <time>2013-10-01T22:37:28Z</time>
      </trkpt>
      <trkpt lat="45.17389" lon="5.55631">
        <ele>1084.112549</ele>
        <time>2013-10-01T22:38:16Z</time>
      </trkpt>
      <trkpt lat="45.17382" lon="5.55694">
        <ele>1086.654907</ele>
        <time>2013-10-01T22:38:28Z</time>
      </trkpt>
      <trkpt lat="45.17343" lon="5.55764">
        <ele>1089.178711</ele>
        <time>2013-10-01T22:38:45Z</time>
      </trkpt>
      <trkpt lat="45.17345" lon="5.55827">
        <ele>1093.391357</ele>
        <time>2013-10-01T22:38:57Z</time>
      </trkpt>
      <trkpt lat="45.17454" lon="5.5593">
        <ele>1100.925293</ele>
        <time>2013-10-01T22:39:31Z</time>
      </trkpt>
      <trkpt lat="45.17485" lon="5.55895">
        <ele>1098.723999</ele>
        <time>2013-10-01T22:39:42Z</time>
      </trkpt>
      <trkpt lat="45.17599" lon="5.55948">
        <ele>1096.089722</ele>
        <time>2013-10-01T22:40:14Z</time>
      </trkpt>
      <trkpt lat="45.17704" lon="5.55965">
        <ele>1090.446167</ele>
        <time>2013-10-01T22:40:42Z</time>
      </trkpt>
      <trkpt lat="45.178" lon="5.56021">
        <ele>1087.33606</ele>
        <time>2013-10-01T22:41:10Z</time>
      </trkpt>
      <trkpt lat="45.18025" lon="5.562">
        <ele>1084.282349</ele>
        <time>2013-10-01T22:42:18Z</time>
      </trkpt>
      <trkpt lat="45.18262" lon="5.56225">
        <ele>1076.605713</ele>
        <time>2013-10-01T22:43:22Z</time>
      </trkpt>
    </trkseg>
  </trk>
</gpx>